<?xml version="1.0" encoding="UTF-8" standalone="no" ?>
<gpx xmlns="http://www.topografix.com/GPX/1/1" xmlns:xsi="http://www.w3.org/2001/XMLSchema-instance" xsi:schemaLocation="http://www.topografix.com/GPX/1/1 http://www.topografix.com/GPX/1/1/gpx.xsd" version="1.1" creator="VisuGPX - https://www.visugpx.com">
  <metadata>
    <name>st maurice sur moselle 88560</name>
  </metadata>
  <trk>
    <name><![CDATA[st maurice sur moselle 88560_1]]></name>
    <trkseg>
      <trkpt lat="47.85729" lon="6.83092">
        <ele>564.3</ele>
        <time>2020-08-15T15:32:22Z</time>
      </trkpt>
      <trkpt lat="47.85731" lon="6.83085">
        <ele>568.2</ele>
        <time>2020-08-15T15:32:28Z</time>
      </trkpt>
      <trkpt lat="47.85733" lon="6.83079">
        <ele>570.1</ele>
        <time>2020-08-15T15:32:35Z</time>
      </trkpt>
      <trkpt lat="47.85733" lon="6.83072">
        <ele>570.1</ele>
        <time>2020-08-15T15:32:44Z</time>
      </trkpt>
      <trkpt lat="47.85738" lon="6.83064">
        <ele>568.5</ele>
        <time>2020-08-15T15:33:05Z</time>
      </trkpt>
      <trkpt lat="47.85741" lon="6.83058">
        <ele>568.8</ele>
        <time>2020-08-15T15:33:11Z</time>
      </trkpt>
      <trkpt lat="47.85743" lon="6.83052">
        <ele>569.8</ele>
        <time>2020-08-15T15:33:22Z</time>
      </trkpt>
      <trkpt lat="47.85746" lon="6.83046">
        <ele>569.9</ele>
        <time>2020-08-15T15:33:29Z</time>
      </trkpt>
      <trkpt lat="47.85748" lon="6.8304">
        <ele>569.9</ele>
        <time>2020-08-15T15:33:34Z</time>
      </trkpt>
      <trkpt lat="47.85751" lon="6.83034">
        <ele>569.8</ele>
        <time>2020-08-15T15:33:41Z</time>
      </trkpt>
      <trkpt lat="47.85754" lon="6.83029">
        <ele>569.4</ele>
        <time>2020-08-15T15:33:50Z</time>
      </trkpt>
      <trkpt lat="47.85756" lon="6.83022">
        <ele>569.1</ele>
        <time>2020-08-15T15:33:57Z</time>
      </trkpt>
      <trkpt lat="47.85758" lon="6.83016">
        <ele>569.1</ele>
        <time>2020-08-15T15:34:03Z</time>
      </trkpt>
      <trkpt lat="47.8576" lon="6.83009">
        <ele>569.2</ele>
        <time>2020-08-15T15:34:08Z</time>
      </trkpt>
      <trkpt lat="47.85763" lon="6.83003">
        <ele>569.4</ele>
        <time>2020-08-15T15:34:13Z</time>
      </trkpt>
      <trkpt lat="47.85765" lon="6.82996">
        <ele>569.7</ele>
        <time>2020-08-15T15:34:18Z</time>
      </trkpt>
      <trkpt lat="47.85768" lon="6.8299">
        <ele>570</ele>
        <time>2020-08-15T15:34:23Z</time>
      </trkpt>
      <trkpt lat="47.85772" lon="6.82985">
        <ele>570.3</ele>
        <time>2020-08-15T15:34:29Z</time>
      </trkpt>
      <trkpt lat="47.85775" lon="6.8298">
        <ele>570.1</ele>
        <time>2020-08-15T15:34:34Z</time>
      </trkpt>
      <trkpt lat="47.85777" lon="6.82974">
        <ele>569.6</ele>
        <time>2020-08-15T15:34:39Z</time>
      </trkpt>
      <trkpt lat="47.85779" lon="6.82967">
        <ele>569.1</ele>
        <time>2020-08-15T15:34:44Z</time>
      </trkpt>
      <trkpt lat="47.85781" lon="6.82961">
        <ele>568.6</ele>
        <time>2020-08-15T15:34:49Z</time>
      </trkpt>
      <trkpt lat="47.85782" lon="6.82954">
        <ele>568.2</ele>
        <time>2020-08-15T15:34:54Z</time>
      </trkpt>
      <trkpt lat="47.85784" lon="6.82947">
        <ele>567.7</ele>
        <time>2020-08-15T15:35:00Z</time>
      </trkpt>
      <trkpt lat="47.85785" lon="6.82941">
        <ele>567.2</ele>
        <time>2020-08-15T15:35:22Z</time>
      </trkpt>
      <trkpt lat="47.85789" lon="6.82936">
        <ele>567.3</ele>
        <time>2020-08-15T15:35:29Z</time>
      </trkpt>
      <trkpt lat="47.85792" lon="6.8293">
        <ele>567.3</ele>
        <time>2020-08-15T15:35:34Z</time>
      </trkpt>
      <trkpt lat="47.85795" lon="6.82923">
        <ele>567.5</ele>
        <time>2020-08-15T15:35:39Z</time>
      </trkpt>
      <trkpt lat="47.85798" lon="6.82918">
        <ele>567.6</ele>
        <time>2020-08-15T15:35:44Z</time>
      </trkpt>
      <trkpt lat="47.858" lon="6.82911">
        <ele>567.6</ele>
        <time>2020-08-15T15:35:50Z</time>
      </trkpt>
      <trkpt lat="47.85802" lon="6.82905">
        <ele>567.7</ele>
        <time>2020-08-15T15:36:02Z</time>
      </trkpt>
      <trkpt lat="47.85805" lon="6.82899">
        <ele>567.7</ele>
        <time>2020-08-15T15:36:10Z</time>
      </trkpt>
      <trkpt lat="47.85808" lon="6.82894">
        <ele>567.8</ele>
        <time>2020-08-15T15:36:16Z</time>
      </trkpt>
      <trkpt lat="47.8581" lon="6.82888">
        <ele>567.9</ele>
        <time>2020-08-15T15:36:21Z</time>
      </trkpt>
      <trkpt lat="47.85812" lon="6.82881">
        <ele>568</ele>
        <time>2020-08-15T15:36:45Z</time>
      </trkpt>
      <trkpt lat="47.85814" lon="6.82875">
        <ele>567.7</ele>
        <time>2020-08-15T15:36:54Z</time>
      </trkpt>
      <trkpt lat="47.85815" lon="6.82867">
        <ele>567.8</ele>
        <time>2020-08-15T15:37:01Z</time>
      </trkpt>
      <trkpt lat="47.85817" lon="6.82861">
        <ele>567.8</ele>
        <time>2020-08-15T15:37:06Z</time>
      </trkpt>
      <trkpt lat="47.8582" lon="6.82856">
        <ele>568</ele>
        <time>2020-08-15T15:37:12Z</time>
      </trkpt>
      <trkpt lat="47.85823" lon="6.8285">
        <ele>568.2</ele>
        <time>2020-08-15T15:37:19Z</time>
      </trkpt>
      <trkpt lat="47.85827" lon="6.82848">
        <ele>567.9</ele>
        <time>2020-08-15T15:37:35Z</time>
      </trkpt>
      <trkpt lat="47.85826" lon="6.82842">
        <ele>567.5</ele>
        <time>2020-08-15T15:37:43Z</time>
      </trkpt>
      <trkpt lat="47.85827" lon="6.82835">
        <ele>566.8</ele>
        <time>2020-08-15T15:37:50Z</time>
      </trkpt>
      <trkpt lat="47.85829" lon="6.82829">
        <ele>565.6</ele>
        <time>2020-08-15T15:37:58Z</time>
      </trkpt>
      <trkpt lat="47.85832" lon="6.82823">
        <ele>565.1</ele>
        <time>2020-08-15T15:38:03Z</time>
      </trkpt>
      <trkpt lat="47.85835" lon="6.82817">
        <ele>565</ele>
        <time>2020-08-15T15:38:07Z</time>
      </trkpt>
      <trkpt lat="47.85838" lon="6.82812">
        <ele>565.6</ele>
        <time>2020-08-15T15:38:27Z</time>
      </trkpt>
      <trkpt lat="47.85842" lon="6.82807">
        <ele>566.1</ele>
        <time>2020-08-15T15:38:37Z</time>
      </trkpt>
      <trkpt lat="47.85846" lon="6.82802">
        <ele>566.4</ele>
        <time>2020-08-15T15:38:49Z</time>
      </trkpt>
      <trkpt lat="47.85847" lon="6.82796">
        <ele>567.3</ele>
        <time>2020-08-15T15:38:59Z</time>
      </trkpt>
      <trkpt lat="47.8585" lon="6.82791">
        <ele>568.2</ele>
        <time>2020-08-15T15:39:07Z</time>
      </trkpt>
      <trkpt lat="47.85851" lon="6.82784">
        <ele>568.3</ele>
        <time>2020-08-15T15:39:16Z</time>
      </trkpt>
      <trkpt lat="47.85851" lon="6.82777">
        <ele>566.8</ele>
        <time>2020-08-15T15:39:28Z</time>
      </trkpt>
      <trkpt lat="47.85853" lon="6.82771">
        <ele>566.9</ele>
        <time>2020-08-15T15:39:36Z</time>
      </trkpt>
      <trkpt lat="47.85855" lon="6.82764">
        <ele>567.3</ele>
        <time>2020-08-15T15:39:43Z</time>
      </trkpt>
      <trkpt lat="47.85859" lon="6.82761">
        <ele>568.1</ele>
        <time>2020-08-15T15:39:53Z</time>
      </trkpt>
      <trkpt lat="47.85862" lon="6.82755">
        <ele>568</ele>
        <time>2020-08-15T15:40:02Z</time>
      </trkpt>
      <trkpt lat="47.85866" lon="6.8275">
        <ele>567.4</ele>
        <time>2020-08-15T15:40:09Z</time>
      </trkpt>
      <trkpt lat="47.85866" lon="6.82743">
        <ele>566.9</ele>
        <time>2020-08-15T15:40:14Z</time>
      </trkpt>
      <trkpt lat="47.85867" lon="6.82736">
        <ele>566.9</ele>
        <time>2020-08-15T15:40:20Z</time>
      </trkpt>
      <trkpt lat="47.8587" lon="6.8273">
        <ele>566.6</ele>
        <time>2020-08-15T15:40:26Z</time>
      </trkpt>
      <trkpt lat="47.85873" lon="6.82723">
        <ele>566.2</ele>
        <time>2020-08-15T15:40:32Z</time>
      </trkpt>
      <trkpt lat="47.85876" lon="6.82718">
        <ele>565.7</ele>
        <time>2020-08-15T15:40:38Z</time>
      </trkpt>
      <trkpt lat="47.8588" lon="6.82713">
        <ele>564.9</ele>
        <time>2020-08-15T15:40:45Z</time>
      </trkpt>
      <trkpt lat="47.85882" lon="6.82706">
        <ele>564.1</ele>
        <time>2020-08-15T15:40:52Z</time>
      </trkpt>
      <trkpt lat="47.85881" lon="6.82699">
        <ele>563.4</ele>
        <time>2020-08-15T15:40:57Z</time>
      </trkpt>
      <trkpt lat="47.85881" lon="6.82691">
        <ele>562.8</ele>
        <time>2020-08-15T15:41:01Z</time>
      </trkpt>
      <trkpt lat="47.85882" lon="6.82683">
        <ele>562.3</ele>
        <time>2020-08-15T15:41:06Z</time>
      </trkpt>
      <trkpt lat="47.85883" lon="6.82677">
        <ele>561.4</ele>
        <time>2020-08-15T15:41:22Z</time>
      </trkpt>
      <trkpt lat="47.85886" lon="6.82671">
        <ele>560.7</ele>
        <time>2020-08-15T15:41:30Z</time>
      </trkpt>
      <trkpt lat="47.8589" lon="6.82666">
        <ele>559.8</ele>
        <time>2020-08-15T15:41:37Z</time>
      </trkpt>
      <trkpt lat="47.85891" lon="6.82659">
        <ele>558.8</ele>
        <time>2020-08-15T15:41:43Z</time>
      </trkpt>
      <trkpt lat="47.85892" lon="6.82651">
        <ele>557.9</ele>
        <time>2020-08-15T15:41:49Z</time>
      </trkpt>
      <trkpt lat="47.85893" lon="6.82644">
        <ele>557.2</ele>
        <time>2020-08-15T15:41:54Z</time>
      </trkpt>
      <trkpt lat="47.85896" lon="6.82639">
        <ele>556.6</ele>
        <time>2020-08-15T15:41:59Z</time>
      </trkpt>
      <trkpt lat="47.85896" lon="6.82631">
        <ele>556.1</ele>
        <time>2020-08-15T15:42:05Z</time>
      </trkpt>
      <trkpt lat="47.85895" lon="6.82624">
        <ele>556</ele>
        <time>2020-08-15T15:42:09Z</time>
      </trkpt>
      <trkpt lat="47.85894" lon="6.82617">
        <ele>555.9</ele>
        <time>2020-08-15T15:42:14Z</time>
      </trkpt>
      <trkpt lat="47.85894" lon="6.8261">
        <ele>554.7</ele>
        <time>2020-08-15T15:42:22Z</time>
      </trkpt>
      <trkpt lat="47.85892" lon="6.82604">
        <ele>554.1</ele>
        <time>2020-08-15T15:42:28Z</time>
      </trkpt>
      <trkpt lat="47.85893" lon="6.82596">
        <ele>553.7</ele>
        <time>2020-08-15T15:42:35Z</time>
      </trkpt>
      <trkpt lat="47.85896" lon="6.82591">
        <ele>553.5</ele>
        <time>2020-08-15T15:42:43Z</time>
      </trkpt>
      <trkpt lat="47.85899" lon="6.82585">
        <ele>553.7</ele>
        <time>2020-08-15T15:42:51Z</time>
      </trkpt>
      <trkpt lat="47.85903" lon="6.82581">
        <ele>554.2</ele>
        <time>2020-08-15T15:42:56Z</time>
      </trkpt>
      <trkpt lat="47.859" lon="6.82575">
        <ele>554.2</ele>
        <time>2020-08-15T15:43:00Z</time>
      </trkpt>
      <trkpt lat="47.85898" lon="6.82568">
        <ele>554.1</ele>
        <time>2020-08-15T15:43:05Z</time>
      </trkpt>
      <trkpt lat="47.85898" lon="6.82561">
        <ele>553.8</ele>
        <time>2020-08-15T15:43:10Z</time>
      </trkpt>
      <trkpt lat="47.85898" lon="6.82555">
        <ele>553.5</ele>
        <time>2020-08-15T15:43:15Z</time>
      </trkpt>
      <trkpt lat="47.85898" lon="6.82547">
        <ele>553.1</ele>
        <time>2020-08-15T15:43:22Z</time>
      </trkpt>
      <trkpt lat="47.85898" lon="6.8254">
        <ele>552.7</ele>
        <time>2020-08-15T15:43:31Z</time>
      </trkpt>
      <trkpt lat="47.85895" lon="6.82533">
        <ele>552.7</ele>
        <time>2020-08-15T15:43:40Z</time>
      </trkpt>
      <trkpt lat="47.85893" lon="6.82526">
        <ele>552.7</ele>
        <time>2020-08-15T15:43:45Z</time>
      </trkpt>
      <trkpt lat="47.85894" lon="6.82519">
        <ele>552.6</ele>
        <time>2020-08-15T15:43:50Z</time>
      </trkpt>
      <trkpt lat="47.85894" lon="6.82512">
        <ele>552.1</ele>
        <time>2020-08-15T15:43:58Z</time>
      </trkpt>
      <trkpt lat="47.85897" lon="6.82506">
        <ele>551.4</ele>
        <time>2020-08-15T15:44:04Z</time>
      </trkpt>
      <trkpt lat="47.85898" lon="6.825">
        <ele>551.1</ele>
        <time>2020-08-15T15:44:08Z</time>
      </trkpt>
      <trkpt lat="47.859" lon="6.82493">
        <ele>551.1</ele>
        <time>2020-08-15T15:44:12Z</time>
      </trkpt>
      <trkpt lat="47.85901" lon="6.82486">
        <ele>551.1</ele>
        <time>2020-08-15T15:44:17Z</time>
      </trkpt>
      <trkpt lat="47.85901" lon="6.82479">
        <ele>550.8</ele>
        <time>2020-08-15T15:44:22Z</time>
      </trkpt>
      <trkpt lat="47.859" lon="6.82472">
        <ele>550.5</ele>
        <time>2020-08-15T15:44:27Z</time>
      </trkpt>
      <trkpt lat="47.85901" lon="6.82465">
        <ele>550.4</ele>
        <time>2020-08-15T15:44:31Z</time>
      </trkpt>
      <trkpt lat="47.85901" lon="6.82458">
        <ele>550.5</ele>
        <time>2020-08-15T15:44:36Z</time>
      </trkpt>
      <trkpt lat="47.85903" lon="6.82451">
        <ele>550.7</ele>
        <time>2020-08-15T15:44:42Z</time>
      </trkpt>
      <trkpt lat="47.85904" lon="6.82444">
        <ele>550.6</ele>
        <time>2020-08-15T15:44:47Z</time>
      </trkpt>
      <trkpt lat="47.85907" lon="6.82438">
        <ele>550.5</ele>
        <time>2020-08-15T15:44:53Z</time>
      </trkpt>
      <trkpt lat="47.85908" lon="6.8243">
        <ele>550.1</ele>
        <time>2020-08-15T15:45:00Z</time>
      </trkpt>
      <trkpt lat="47.85908" lon="6.82422">
        <ele>549.7</ele>
        <time>2020-08-15T15:45:05Z</time>
      </trkpt>
      <trkpt lat="47.85909" lon="6.82415">
        <ele>549.3</ele>
        <time>2020-08-15T15:45:12Z</time>
      </trkpt>
      <trkpt lat="47.85914" lon="6.82414">
        <ele>548.9</ele>
        <time>2020-08-15T15:45:20Z</time>
      </trkpt>
      <trkpt lat="47.85919" lon="6.82416">
        <ele>548.7</ele>
        <time>2020-08-15T15:45:25Z</time>
      </trkpt>
      <trkpt lat="47.85923" lon="6.82417">
        <ele>548.6</ele>
        <time>2020-08-15T15:45:37Z</time>
      </trkpt>
      <trkpt lat="47.85926" lon="6.8241">
        <ele>549.2</ele>
        <time>2020-08-15T15:45:46Z</time>
      </trkpt>
      <trkpt lat="47.85928" lon="6.82404">
        <ele>549.5</ele>
        <time>2020-08-15T15:45:51Z</time>
      </trkpt>
      <trkpt lat="47.85932" lon="6.824">
        <ele>549.6</ele>
        <time>2020-08-15T15:45:55Z</time>
      </trkpt>
      <trkpt lat="47.85935" lon="6.82395">
        <ele>549.9</ele>
        <time>2020-08-15T15:46:00Z</time>
      </trkpt>
      <trkpt lat="47.85937" lon="6.82389">
        <ele>550.7</ele>
        <time>2020-08-15T15:46:22Z</time>
      </trkpt>
      <trkpt lat="47.8594" lon="6.82382">
        <ele>550.8</ele>
        <time>2020-08-15T15:46:26Z</time>
      </trkpt>
      <trkpt lat="47.85942" lon="6.82375">
        <ele>550.9</ele>
        <time>2020-08-15T15:46:31Z</time>
      </trkpt>
      <trkpt lat="47.85945" lon="6.8237">
        <ele>551</ele>
        <time>2020-08-15T15:46:36Z</time>
      </trkpt>
      <trkpt lat="47.85949" lon="6.82365">
        <ele>551.4</ele>
        <time>2020-08-15T15:46:41Z</time>
      </trkpt>
      <trkpt lat="47.85952" lon="6.82359">
        <ele>552</ele>
        <time>2020-08-15T15:46:46Z</time>
      </trkpt>
      <trkpt lat="47.85955" lon="6.82353">
        <ele>552.4</ele>
        <time>2020-08-15T15:46:50Z</time>
      </trkpt>
      <trkpt lat="47.85958" lon="6.82346">
        <ele>553.1</ele>
        <time>2020-08-15T15:46:55Z</time>
      </trkpt>
      <trkpt lat="47.85962" lon="6.82343">
        <ele>553.7</ele>
        <time>2020-08-15T15:47:17Z</time>
      </trkpt>
      <trkpt lat="47.85965" lon="6.82336">
        <ele>554.2</ele>
        <time>2020-08-15T15:47:24Z</time>
      </trkpt>
      <trkpt lat="47.85968" lon="6.82329">
        <ele>554.7</ele>
        <time>2020-08-15T15:47:47Z</time>
      </trkpt>
      <trkpt lat="47.85971" lon="6.82324">
        <ele>554.6</ele>
        <time>2020-08-15T15:47:52Z</time>
      </trkpt>
      <trkpt lat="47.85974" lon="6.82318">
        <ele>554.6</ele>
        <time>2020-08-15T15:47:56Z</time>
      </trkpt>
      <trkpt lat="47.85976" lon="6.82312">
        <ele>554.4</ele>
        <time>2020-08-15T15:48:01Z</time>
      </trkpt>
      <trkpt lat="47.85978" lon="6.82306">
        <ele>552.6</ele>
        <time>2020-08-15T15:48:22Z</time>
      </trkpt>
      <trkpt lat="47.85981" lon="6.82299">
        <ele>551.7</ele>
        <time>2020-08-15T15:48:29Z</time>
      </trkpt>
      <trkpt lat="47.85984" lon="6.82293">
        <ele>550.8</ele>
        <time>2020-08-15T15:48:35Z</time>
      </trkpt>
      <trkpt lat="47.85985" lon="6.82285">
        <ele>550</ele>
        <time>2020-08-15T15:48:40Z</time>
      </trkpt>
      <trkpt lat="47.85987" lon="6.82278">
        <ele>549.2</ele>
        <time>2020-08-15T15:48:45Z</time>
      </trkpt>
      <trkpt lat="47.85986" lon="6.82271">
        <ele>548.3</ele>
        <time>2020-08-15T15:48:52Z</time>
      </trkpt>
      <trkpt lat="47.85988" lon="6.82264">
        <ele>548.2</ele>
        <time>2020-08-15T15:49:08Z</time>
      </trkpt>
      <trkpt lat="47.85988" lon="6.82257">
        <ele>548</ele>
        <time>2020-08-15T15:49:20Z</time>
      </trkpt>
      <trkpt lat="47.85988" lon="6.82249">
        <ele>548.1</ele>
        <time>2020-08-15T15:49:26Z</time>
      </trkpt>
      <trkpt lat="47.85987" lon="6.82242">
        <ele>548.4</ele>
        <time>2020-08-15T15:49:31Z</time>
      </trkpt>
      <trkpt lat="47.85982" lon="6.82242">
        <ele>549.7</ele>
        <time>2020-08-15T15:49:48Z</time>
      </trkpt>
      <trkpt lat="47.85986" lon="6.82237">
        <ele>550</ele>
        <time>2020-08-15T15:51:08Z</time>
      </trkpt>
      <trkpt lat="47.85988" lon="6.82231">
        <ele>550.1</ele>
        <time>2020-08-15T15:51:24Z</time>
      </trkpt>
      <trkpt lat="47.8599" lon="6.82225">
        <ele>550.2</ele>
        <time>2020-08-15T15:51:29Z</time>
      </trkpt>
      <trkpt lat="47.85993" lon="6.8222">
        <ele>550.6</ele>
        <time>2020-08-15T15:51:35Z</time>
      </trkpt>
      <trkpt lat="47.85997" lon="6.82216">
        <ele>551.1</ele>
        <time>2020-08-15T15:51:41Z</time>
      </trkpt>
      <trkpt lat="47.86" lon="6.8221">
        <ele>551.4</ele>
        <time>2020-08-15T15:51:47Z</time>
      </trkpt>
      <trkpt lat="47.86003" lon="6.82203">
        <ele>551.7</ele>
        <time>2020-08-15T15:51:53Z</time>
      </trkpt>
      <trkpt lat="47.86005" lon="6.82197">
        <ele>552.1</ele>
        <time>2020-08-15T15:51:58Z</time>
      </trkpt>
      <trkpt lat="47.86007" lon="6.82191">
        <ele>552.9</ele>
        <time>2020-08-15T15:52:04Z</time>
      </trkpt>
      <trkpt lat="47.86011" lon="6.82186">
        <ele>556.1</ele>
        <time>2020-08-15T15:52:58Z</time>
      </trkpt>
      <trkpt lat="47.86011" lon="6.82179">
        <ele>556.9</ele>
        <time>2020-08-15T15:53:04Z</time>
      </trkpt>
      <trkpt lat="47.86012" lon="6.82171">
        <ele>557.5</ele>
        <time>2020-08-15T15:53:09Z</time>
      </trkpt>
      <trkpt lat="47.86013" lon="6.82164">
        <ele>558</ele>
        <time>2020-08-15T15:53:13Z</time>
      </trkpt>
      <trkpt lat="47.86014" lon="6.82157">
        <ele>558.5</ele>
        <time>2020-08-15T15:53:19Z</time>
      </trkpt>
      <trkpt lat="47.86015" lon="6.8215">
        <ele>558.8</ele>
        <time>2020-08-15T15:53:25Z</time>
      </trkpt>
      <trkpt lat="47.86015" lon="6.82142">
        <ele>558.9</ele>
        <time>2020-08-15T15:53:30Z</time>
      </trkpt>
      <trkpt lat="47.86016" lon="6.82135">
        <ele>559</ele>
        <time>2020-08-15T15:53:34Z</time>
      </trkpt>
      <trkpt lat="47.86014" lon="6.82127">
        <ele>559.3</ele>
        <time>2020-08-15T15:53:39Z</time>
      </trkpt>
      <trkpt lat="47.86014" lon="6.8212">
        <ele>559.6</ele>
        <time>2020-08-15T15:53:43Z</time>
      </trkpt>
      <trkpt lat="47.86013" lon="6.82113">
        <ele>559.8</ele>
        <time>2020-08-15T15:53:47Z</time>
      </trkpt>
      <trkpt lat="47.86012" lon="6.82106">
        <ele>559.7</ele>
        <time>2020-08-15T15:53:52Z</time>
      </trkpt>
      <trkpt lat="47.8601" lon="6.82099">
        <ele>559.4</ele>
        <time>2020-08-15T15:53:58Z</time>
      </trkpt>
      <trkpt lat="47.86009" lon="6.82092">
        <ele>559.4</ele>
        <time>2020-08-15T15:54:04Z</time>
      </trkpt>
      <trkpt lat="47.86006" lon="6.82086">
        <ele>559.4</ele>
        <time>2020-08-15T15:54:09Z</time>
      </trkpt>
      <trkpt lat="47.86005" lon="6.82079">
        <ele>559.3</ele>
        <time>2020-08-15T15:54:14Z</time>
      </trkpt>
      <trkpt lat="47.86002" lon="6.82072">
        <ele>559.2</ele>
        <time>2020-08-15T15:54:19Z</time>
      </trkpt>
      <trkpt lat="47.85998" lon="6.82066">
        <ele>559.2</ele>
        <time>2020-08-15T15:54:24Z</time>
      </trkpt>
      <trkpt lat="47.85995" lon="6.82061">
        <ele>559.3</ele>
        <time>2020-08-15T15:54:29Z</time>
      </trkpt>
      <trkpt lat="47.85991" lon="6.82056">
        <ele>559.8</ele>
        <time>2020-08-15T15:54:34Z</time>
      </trkpt>
      <trkpt lat="47.85987" lon="6.8205">
        <ele>560.3</ele>
        <time>2020-08-15T15:54:39Z</time>
      </trkpt>
      <trkpt lat="47.85983" lon="6.82044">
        <ele>560.6</ele>
        <time>2020-08-15T15:54:44Z</time>
      </trkpt>
      <trkpt lat="47.8598" lon="6.8204">
        <ele>560.8</ele>
        <time>2020-08-15T15:54:49Z</time>
      </trkpt>
      <trkpt lat="47.85976" lon="6.82035">
        <ele>560.7</ele>
        <time>2020-08-15T15:54:55Z</time>
      </trkpt>
      <trkpt lat="47.85972" lon="6.8203">
        <ele>560.7</ele>
        <time>2020-08-15T15:55:00Z</time>
      </trkpt>
      <trkpt lat="47.85968" lon="6.82026">
        <ele>560.7</ele>
        <time>2020-08-15T15:55:04Z</time>
      </trkpt>
      <trkpt lat="47.85965" lon="6.8202">
        <ele>560.7</ele>
        <time>2020-08-15T15:55:08Z</time>
      </trkpt>
      <trkpt lat="47.85962" lon="6.82015">
        <ele>560.9</ele>
        <time>2020-08-15T15:55:12Z</time>
      </trkpt>
      <trkpt lat="47.85959" lon="6.82009">
        <ele>560.9</ele>
        <time>2020-08-15T15:55:17Z</time>
      </trkpt>
      <trkpt lat="47.85957" lon="6.82002">
        <ele>560.9</ele>
        <time>2020-08-15T15:55:21Z</time>
      </trkpt>
      <trkpt lat="47.85956" lon="6.81996">
        <ele>561.1</ele>
        <time>2020-08-15T15:55:25Z</time>
      </trkpt>
      <trkpt lat="47.85959" lon="6.8199">
        <ele>561.7</ele>
        <time>2020-08-15T15:55:32Z</time>
      </trkpt>
      <trkpt lat="47.85963" lon="6.81991">
        <ele>562.4</ele>
        <time>2020-08-15T15:55:37Z</time>
      </trkpt>
      <trkpt lat="47.85968" lon="6.81992">
        <ele>564.2</ele>
        <time>2020-08-15T15:55:49Z</time>
      </trkpt>
      <trkpt lat="47.85973" lon="6.81993">
        <ele>566.6</ele>
        <time>2020-08-15T15:56:06Z</time>
      </trkpt>
      <trkpt lat="47.85977" lon="6.81996">
        <ele>568.4</ele>
        <time>2020-08-15T15:56:11Z</time>
      </trkpt>
      <trkpt lat="47.8598" lon="6.82001">
        <ele>570.5</ele>
        <time>2020-08-15T15:56:16Z</time>
      </trkpt>
      <trkpt lat="47.85984" lon="6.82003">
        <ele>572.1</ele>
        <time>2020-08-15T15:56:20Z</time>
      </trkpt>
      <trkpt lat="47.85988" lon="6.82008">
        <ele>574.2</ele>
        <time>2020-08-15T15:56:25Z</time>
      </trkpt>
      <trkpt lat="47.85993" lon="6.82012">
        <ele>576.6</ele>
        <time>2020-08-15T15:56:31Z</time>
      </trkpt>
      <trkpt lat="47.85997" lon="6.82013">
        <ele>578.5</ele>
        <time>2020-08-15T15:56:37Z</time>
      </trkpt>
      <trkpt lat="47.86002" lon="6.82016">
        <ele>580.2</ele>
        <time>2020-08-15T15:56:52Z</time>
      </trkpt>
      <trkpt lat="47.86006" lon="6.82018">
        <ele>580.2</ele>
        <time>2020-08-15T15:56:56Z</time>
      </trkpt>
      <trkpt lat="47.86012" lon="6.8202">
        <ele>580.2</ele>
        <time>2020-08-15T15:57:00Z</time>
      </trkpt>
      <trkpt lat="47.86016" lon="6.82021">
        <ele>580.3</ele>
        <time>2020-08-15T15:57:04Z</time>
      </trkpt>
      <trkpt lat="47.86021" lon="6.82024">
        <ele>580.5</ele>
        <time>2020-08-15T15:57:09Z</time>
      </trkpt>
      <trkpt lat="47.86026" lon="6.82028">
        <ele>580.7</ele>
        <time>2020-08-15T15:57:14Z</time>
      </trkpt>
      <trkpt lat="47.86029" lon="6.82032">
        <ele>580.9</ele>
        <time>2020-08-15T15:57:20Z</time>
      </trkpt>
      <trkpt lat="47.86033" lon="6.82037">
        <ele>581.4</ele>
        <time>2020-08-15T15:57:26Z</time>
      </trkpt>
      <trkpt lat="47.86036" lon="6.82042">
        <ele>582.1</ele>
        <time>2020-08-15T15:57:43Z</time>
      </trkpt>
      <trkpt lat="47.8604" lon="6.82046">
        <ele>583</ele>
        <time>2020-08-15T15:57:59Z</time>
      </trkpt>
      <trkpt lat="47.86044" lon="6.82049">
        <ele>583</ele>
        <time>2020-08-15T15:58:06Z</time>
      </trkpt>
      <trkpt lat="47.86049" lon="6.82052">
        <ele>581.9</ele>
        <time>2020-08-15T15:58:55Z</time>
      </trkpt>
      <trkpt lat="47.86055" lon="6.82051">
        <ele>581.7</ele>
        <time>2020-08-15T15:59:15Z</time>
      </trkpt>
      <trkpt lat="47.8606" lon="6.82053">
        <ele>581.5</ele>
        <time>2020-08-15T15:59:20Z</time>
      </trkpt>
      <trkpt lat="47.86065" lon="6.82054">
        <ele>581.5</ele>
        <time>2020-08-15T15:59:25Z</time>
      </trkpt>
      <trkpt lat="47.8607" lon="6.82055">
        <ele>581.4</ele>
        <time>2020-08-15T15:59:30Z</time>
      </trkpt>
      <trkpt lat="47.86075" lon="6.82056">
        <ele>581.3</ele>
        <time>2020-08-15T15:59:35Z</time>
      </trkpt>
      <trkpt lat="47.86079" lon="6.82059">
        <ele>581.4</ele>
        <time>2020-08-15T15:59:40Z</time>
      </trkpt>
      <trkpt lat="47.86082" lon="6.82064">
        <ele>581.4</ele>
        <time>2020-08-15T15:59:45Z</time>
      </trkpt>
      <trkpt lat="47.86087" lon="6.82066">
        <ele>581.6</ele>
        <time>2020-08-15T16:00:15Z</time>
      </trkpt>
      <trkpt lat="47.86091" lon="6.82069">
        <ele>581.7</ele>
        <time>2020-08-15T16:00:19Z</time>
      </trkpt>
      <trkpt lat="47.86096" lon="6.8207">
        <ele>581.9</ele>
        <time>2020-08-15T16:00:24Z</time>
      </trkpt>
      <trkpt lat="47.86101" lon="6.82071">
        <ele>582.5</ele>
        <time>2020-08-15T16:00:32Z</time>
      </trkpt>
      <trkpt lat="47.86103" lon="6.82078">
        <ele>583.8</ele>
        <time>2020-08-15T16:00:44Z</time>
      </trkpt>
      <trkpt lat="47.86105" lon="6.82085">
        <ele>584.3</ele>
        <time>2020-08-15T16:00:49Z</time>
      </trkpt>
      <trkpt lat="47.86106" lon="6.82091">
        <ele>584.6</ele>
        <time>2020-08-15T16:00:53Z</time>
      </trkpt>
      <trkpt lat="47.8611" lon="6.82095">
        <ele>585.1</ele>
        <time>2020-08-15T16:00:58Z</time>
      </trkpt>
      <trkpt lat="47.86115" lon="6.82099">
        <ele>585.7</ele>
        <time>2020-08-15T16:01:02Z</time>
      </trkpt>
      <trkpt lat="47.8612" lon="6.821">
        <ele>586.1</ele>
        <time>2020-08-15T16:01:06Z</time>
      </trkpt>
      <trkpt lat="47.86124" lon="6.82104">
        <ele>586.6</ele>
        <time>2020-08-15T16:01:12Z</time>
      </trkpt>
      <trkpt lat="47.86131" lon="6.82107">
        <ele>587.3</ele>
        <time>2020-08-15T16:01:16Z</time>
      </trkpt>
      <trkpt lat="47.86137" lon="6.82106">
        <ele>588.4</ele>
        <time>2020-08-15T16:01:20Z</time>
      </trkpt>
      <trkpt lat="47.86142" lon="6.82108">
        <ele>589.8</ele>
        <time>2020-08-15T16:01:27Z</time>
      </trkpt>
      <trkpt lat="47.86145" lon="6.82115">
        <ele>591.4</ele>
        <time>2020-08-15T16:01:35Z</time>
      </trkpt>
      <trkpt lat="47.8615" lon="6.82118">
        <ele>592.5</ele>
        <time>2020-08-15T16:01:41Z</time>
      </trkpt>
      <trkpt lat="47.86155" lon="6.82121">
        <ele>593.4</ele>
        <time>2020-08-15T16:01:46Z</time>
      </trkpt>
      <trkpt lat="47.86159" lon="6.82125">
        <ele>594.2</ele>
        <time>2020-08-15T16:01:51Z</time>
      </trkpt>
      <trkpt lat="47.86164" lon="6.82127">
        <ele>595</ele>
        <time>2020-08-15T16:01:56Z</time>
      </trkpt>
      <trkpt lat="47.86168" lon="6.82128">
        <ele>596.1</ele>
        <time>2020-08-15T16:02:02Z</time>
      </trkpt>
      <trkpt lat="47.86173" lon="6.82129">
        <ele>597</ele>
        <time>2020-08-15T16:02:07Z</time>
      </trkpt>
      <trkpt lat="47.86178" lon="6.82132">
        <ele>598.2</ele>
        <time>2020-08-15T16:02:12Z</time>
      </trkpt>
      <trkpt lat="47.86183" lon="6.82134">
        <ele>599.4</ele>
        <time>2020-08-15T16:02:17Z</time>
      </trkpt>
      <trkpt lat="47.86188" lon="6.82138">
        <ele>600.5</ele>
        <time>2020-08-15T16:02:22Z</time>
      </trkpt>
      <trkpt lat="47.86193" lon="6.8214">
        <ele>601.4</ele>
        <time>2020-08-15T16:02:27Z</time>
      </trkpt>
      <trkpt lat="47.86198" lon="6.82143">
        <ele>602</ele>
        <time>2020-08-15T16:02:32Z</time>
      </trkpt>
      <trkpt lat="47.86203" lon="6.82144">
        <ele>602.2</ele>
        <time>2020-08-15T16:02:37Z</time>
      </trkpt>
      <trkpt lat="47.86209" lon="6.82145">
        <ele>602.5</ele>
        <time>2020-08-15T16:02:42Z</time>
      </trkpt>
      <trkpt lat="47.86214" lon="6.82145">
        <ele>603</ele>
        <time>2020-08-15T16:02:47Z</time>
      </trkpt>
      <trkpt lat="47.86219" lon="6.82145">
        <ele>603.8</ele>
        <time>2020-08-15T16:02:52Z</time>
      </trkpt>
      <trkpt lat="47.86225" lon="6.82145">
        <ele>604.6</ele>
        <time>2020-08-15T16:02:57Z</time>
      </trkpt>
      <trkpt lat="47.86229" lon="6.82143">
        <ele>605.3</ele>
        <time>2020-08-15T16:03:02Z</time>
      </trkpt>
      <trkpt lat="47.86234" lon="6.82139">
        <ele>606</ele>
        <time>2020-08-15T16:03:08Z</time>
      </trkpt>
      <trkpt lat="47.86238" lon="6.82135">
        <ele>606.3</ele>
        <time>2020-08-15T16:03:13Z</time>
      </trkpt>
      <trkpt lat="47.86242" lon="6.82132">
        <ele>606.8</ele>
        <time>2020-08-15T16:03:19Z</time>
      </trkpt>
      <trkpt lat="47.86247" lon="6.82127">
        <ele>607.4</ele>
        <time>2020-08-15T16:03:24Z</time>
      </trkpt>
      <trkpt lat="47.86251" lon="6.82124">
        <ele>608.2</ele>
        <time>2020-08-15T16:03:29Z</time>
      </trkpt>
      <trkpt lat="47.86256" lon="6.8212">
        <ele>610.2</ele>
        <time>2020-08-15T16:03:56Z</time>
      </trkpt>
      <trkpt lat="47.8626" lon="6.82117">
        <ele>610.1</ele>
        <time>2020-08-15T16:04:01Z</time>
      </trkpt>
      <trkpt lat="47.86264" lon="6.82112">
        <ele>610.1</ele>
        <time>2020-08-15T16:04:06Z</time>
      </trkpt>
      <trkpt lat="47.86267" lon="6.82108">
        <ele>610</ele>
        <time>2020-08-15T16:04:12Z</time>
      </trkpt>
      <trkpt lat="47.86273" lon="6.82106">
        <ele>611</ele>
        <time>2020-08-15T16:04:31Z</time>
      </trkpt>
      <trkpt lat="47.86278" lon="6.82103">
        <ele>612</ele>
        <time>2020-08-15T16:04:35Z</time>
      </trkpt>
      <trkpt lat="47.86282" lon="6.82101">
        <ele>613.4</ele>
        <time>2020-08-15T16:04:40Z</time>
      </trkpt>
      <trkpt lat="47.86287" lon="6.82098">
        <ele>615.3</ele>
        <time>2020-08-15T16:04:46Z</time>
      </trkpt>
      <trkpt lat="47.86292" lon="6.82096">
        <ele>616.8</ele>
        <time>2020-08-15T16:04:51Z</time>
      </trkpt>
      <trkpt lat="47.86298" lon="6.82094">
        <ele>617.8</ele>
        <time>2020-08-15T16:04:55Z</time>
      </trkpt>
      <trkpt lat="47.86303" lon="6.82093">
        <ele>618.8</ele>
        <time>2020-08-15T16:04:59Z</time>
      </trkpt>
      <trkpt lat="47.86308" lon="6.82092">
        <ele>619.9</ele>
        <time>2020-08-15T16:05:03Z</time>
      </trkpt>
      <trkpt lat="47.86312" lon="6.82094">
        <ele>621.3</ele>
        <time>2020-08-15T16:05:08Z</time>
      </trkpt>
      <trkpt lat="47.86316" lon="6.82099">
        <ele>622.6</ele>
        <time>2020-08-15T16:05:13Z</time>
      </trkpt>
      <trkpt lat="47.86321" lon="6.82102">
        <ele>623.6</ele>
        <time>2020-08-15T16:05:18Z</time>
      </trkpt>
      <trkpt lat="47.86325" lon="6.82107">
        <ele>624.8</ele>
        <time>2020-08-15T16:05:24Z</time>
      </trkpt>
      <trkpt lat="47.86329" lon="6.82111">
        <ele>625.8</ele>
        <time>2020-08-15T16:05:29Z</time>
      </trkpt>
      <trkpt lat="47.86332" lon="6.82117">
        <ele>626.8</ele>
        <time>2020-08-15T16:05:34Z</time>
      </trkpt>
      <trkpt lat="47.86336" lon="6.82123">
        <ele>627.6</ele>
        <time>2020-08-15T16:05:39Z</time>
      </trkpt>
      <trkpt lat="47.8634" lon="6.82127">
        <ele>628</ele>
        <time>2020-08-15T16:05:43Z</time>
      </trkpt>
      <trkpt lat="47.86343" lon="6.82133">
        <ele>628.3</ele>
        <time>2020-08-15T16:05:47Z</time>
      </trkpt>
      <trkpt lat="47.86345" lon="6.82138">
        <ele>628.6</ele>
        <time>2020-08-15T16:05:51Z</time>
      </trkpt>
      <trkpt lat="47.8635" lon="6.82142">
        <ele>629.1</ele>
        <time>2020-08-15T16:05:56Z</time>
      </trkpt>
      <trkpt lat="47.86354" lon="6.82146">
        <ele>629.6</ele>
        <time>2020-08-15T16:06:01Z</time>
      </trkpt>
      <trkpt lat="47.86359" lon="6.82146">
        <ele>630.5</ele>
        <time>2020-08-15T16:06:08Z</time>
      </trkpt>
      <trkpt lat="47.86364" lon="6.8215">
        <ele>630.9</ele>
        <time>2020-08-15T16:06:13Z</time>
      </trkpt>
      <trkpt lat="47.86368" lon="6.82155">
        <ele>631.1</ele>
        <time>2020-08-15T16:06:17Z</time>
      </trkpt>
      <trkpt lat="47.8637" lon="6.8216">
        <ele>631.4</ele>
        <time>2020-08-15T16:06:21Z</time>
      </trkpt>
      <trkpt lat="47.86374" lon="6.82166">
        <ele>631.7</ele>
        <time>2020-08-15T16:06:25Z</time>
      </trkpt>
      <trkpt lat="47.86378" lon="6.82169">
        <ele>631.8</ele>
        <time>2020-08-15T16:06:29Z</time>
      </trkpt>
      <trkpt lat="47.86383" lon="6.82174">
        <ele>631.8</ele>
        <time>2020-08-15T16:06:34Z</time>
      </trkpt>
      <trkpt lat="47.86387" lon="6.82177">
        <ele>631.5</ele>
        <time>2020-08-15T16:06:39Z</time>
      </trkpt>
      <trkpt lat="47.86391" lon="6.82181">
        <ele>631.3</ele>
        <time>2020-08-15T16:06:44Z</time>
      </trkpt>
      <trkpt lat="47.86395" lon="6.82185">
        <ele>630.7</ele>
        <time>2020-08-15T16:06:48Z</time>
      </trkpt>
      <trkpt lat="47.864" lon="6.8219">
        <ele>630.1</ele>
        <time>2020-08-15T16:06:53Z</time>
      </trkpt>
      <trkpt lat="47.86404" lon="6.82192">
        <ele>629.7</ele>
        <time>2020-08-15T16:06:58Z</time>
      </trkpt>
      <trkpt lat="47.86409" lon="6.82196">
        <ele>629.4</ele>
        <time>2020-08-15T16:07:03Z</time>
      </trkpt>
      <trkpt lat="47.86414" lon="6.82198">
        <ele>629.2</ele>
        <time>2020-08-15T16:07:08Z</time>
      </trkpt>
      <trkpt lat="47.86419" lon="6.82202">
        <ele>628.9</ele>
        <time>2020-08-15T16:07:13Z</time>
      </trkpt>
      <trkpt lat="47.86423" lon="6.82204">
        <ele>628.7</ele>
        <time>2020-08-15T16:07:17Z</time>
      </trkpt>
      <trkpt lat="47.86427" lon="6.82207">
        <ele>628.7</ele>
        <time>2020-08-15T16:07:21Z</time>
      </trkpt>
      <trkpt lat="47.86431" lon="6.82211">
        <ele>628.8</ele>
        <time>2020-08-15T16:07:26Z</time>
      </trkpt>
      <trkpt lat="47.86434" lon="6.82216">
        <ele>628.9</ele>
        <time>2020-08-15T16:07:30Z</time>
      </trkpt>
      <trkpt lat="47.86438" lon="6.82222">
        <ele>628.9</ele>
        <time>2020-08-15T16:07:35Z</time>
      </trkpt>
      <trkpt lat="47.8644" lon="6.8223">
        <ele>628.8</ele>
        <time>2020-08-15T16:07:39Z</time>
      </trkpt>
      <trkpt lat="47.86443" lon="6.82237">
        <ele>628.7</ele>
        <time>2020-08-15T16:07:43Z</time>
      </trkpt>
      <trkpt lat="47.86448" lon="6.82242">
        <ele>628.5</ele>
        <time>2020-08-15T16:07:47Z</time>
      </trkpt>
      <trkpt lat="47.86453" lon="6.82247">
        <ele>628.3</ele>
        <time>2020-08-15T16:07:51Z</time>
      </trkpt>
      <trkpt lat="47.86458" lon="6.82252">
        <ele>628.2</ele>
        <time>2020-08-15T16:07:55Z</time>
      </trkpt>
      <trkpt lat="47.86462" lon="6.82256">
        <ele>628.2</ele>
        <time>2020-08-15T16:07:59Z</time>
      </trkpt>
      <trkpt lat="47.86466" lon="6.8226">
        <ele>628.1</ele>
        <time>2020-08-15T16:08:03Z</time>
      </trkpt>
      <trkpt lat="47.8647" lon="6.82264">
        <ele>628.1</ele>
        <time>2020-08-15T16:08:08Z</time>
      </trkpt>
      <trkpt lat="47.86474" lon="6.82268">
        <ele>626.9</ele>
        <time>2020-08-15T16:08:47Z</time>
      </trkpt>
      <trkpt lat="47.86478" lon="6.82273">
        <ele>626.7</ele>
        <time>2020-08-15T16:08:52Z</time>
      </trkpt>
      <trkpt lat="47.86481" lon="6.82277">
        <ele>626.6</ele>
        <time>2020-08-15T16:08:56Z</time>
      </trkpt>
      <trkpt lat="47.86486" lon="6.82281">
        <ele>626.3</ele>
        <time>2020-08-15T16:09:01Z</time>
      </trkpt>
      <trkpt lat="47.8649" lon="6.82284">
        <ele>626</ele>
        <time>2020-08-15T16:09:06Z</time>
      </trkpt>
      <trkpt lat="47.86494" lon="6.82283">
        <ele>624.5</ele>
        <time>2020-08-15T16:09:37Z</time>
      </trkpt>
      <trkpt lat="47.86496" lon="6.82277">
        <ele>623.8</ele>
        <time>2020-08-15T16:10:16Z</time>
      </trkpt>
      <trkpt lat="47.86494" lon="6.8227">
        <ele>621.8</ele>
        <time>2020-08-15T16:13:27Z</time>
      </trkpt>
      <trkpt lat="47.86491" lon="6.82263">
        <ele>621.2</ele>
        <time>2020-08-15T16:13:32Z</time>
      </trkpt>
      <trkpt lat="47.86488" lon="6.82258">
        <ele>621</ele>
        <time>2020-08-15T16:13:36Z</time>
      </trkpt>
      <trkpt lat="47.86485" lon="6.82252">
        <ele>620.9</ele>
        <time>2020-08-15T16:13:41Z</time>
      </trkpt>
      <trkpt lat="47.86482" lon="6.82247">
        <ele>621</ele>
        <time>2020-08-15T16:13:46Z</time>
      </trkpt>
      <trkpt lat="47.86478" lon="6.82242">
        <ele>621.2</ele>
        <time>2020-08-15T16:13:51Z</time>
      </trkpt>
      <trkpt lat="47.86474" lon="6.82238">
        <ele>622</ele>
        <time>2020-08-15T16:14:16Z</time>
      </trkpt>
      <trkpt lat="47.86471" lon="6.82233">
        <ele>622.2</ele>
        <time>2020-08-15T16:14:20Z</time>
      </trkpt>
      <trkpt lat="47.86467" lon="6.82228">
        <ele>622.4</ele>
        <time>2020-08-15T16:14:24Z</time>
      </trkpt>
      <trkpt lat="47.86463" lon="6.82222">
        <ele>622.7</ele>
        <time>2020-08-15T16:14:28Z</time>
      </trkpt>
      <trkpt lat="47.8646" lon="6.82217">
        <ele>623.1</ele>
        <time>2020-08-15T16:14:33Z</time>
      </trkpt>
      <trkpt lat="47.86456" lon="6.82212">
        <ele>623.3</ele>
        <time>2020-08-15T16:14:38Z</time>
      </trkpt>
      <trkpt lat="47.86452" lon="6.82207">
        <ele>623.4</ele>
        <time>2020-08-15T16:14:43Z</time>
      </trkpt>
      <trkpt lat="47.8645" lon="6.822">
        <ele>623.4</ele>
        <time>2020-08-15T16:14:48Z</time>
      </trkpt>
      <trkpt lat="47.86449" lon="6.82193">
        <ele>623.5</ele>
        <time>2020-08-15T16:14:52Z</time>
      </trkpt>
      <trkpt lat="47.86447" lon="6.82187">
        <ele>624.7</ele>
        <time>2020-08-15T16:15:08Z</time>
      </trkpt>
      <trkpt lat="47.86444" lon="6.82181">
        <ele>625.8</ele>
        <time>2020-08-15T16:15:31Z</time>
      </trkpt>
      <trkpt lat="47.86441" lon="6.82175">
        <ele>626.4</ele>
        <time>2020-08-15T16:15:36Z</time>
      </trkpt>
      <trkpt lat="47.86438" lon="6.82168">
        <ele>626.8</ele>
        <time>2020-08-15T16:15:40Z</time>
      </trkpt>
      <trkpt lat="47.86437" lon="6.82161">
        <ele>627.2</ele>
        <time>2020-08-15T16:15:44Z</time>
      </trkpt>
      <trkpt lat="47.86434" lon="6.82155">
        <ele>627.8</ele>
        <time>2020-08-15T16:15:49Z</time>
      </trkpt>
      <trkpt lat="47.86431" lon="6.82149">
        <ele>628.2</ele>
        <time>2020-08-15T16:15:53Z</time>
      </trkpt>
      <trkpt lat="47.86428" lon="6.82144">
        <ele>628.5</ele>
        <time>2020-08-15T16:15:57Z</time>
      </trkpt>
      <trkpt lat="47.86425" lon="6.82138">
        <ele>628.8</ele>
        <time>2020-08-15T16:16:01Z</time>
      </trkpt>
      <trkpt lat="47.86422" lon="6.82132">
        <ele>629.3</ele>
        <time>2020-08-15T16:16:06Z</time>
      </trkpt>
      <trkpt lat="47.86419" lon="6.82126">
        <ele>630.2</ele>
        <time>2020-08-15T16:16:12Z</time>
      </trkpt>
      <trkpt lat="47.86417" lon="6.8212">
        <ele>630.9</ele>
        <time>2020-08-15T16:16:17Z</time>
      </trkpt>
      <trkpt lat="47.86414" lon="6.82113">
        <ele>631.6</ele>
        <time>2020-08-15T16:16:22Z</time>
      </trkpt>
      <trkpt lat="47.86411" lon="6.82105">
        <ele>632.2</ele>
        <time>2020-08-15T16:16:27Z</time>
      </trkpt>
      <trkpt lat="47.86409" lon="6.82098">
        <ele>632.6</ele>
        <time>2020-08-15T16:16:31Z</time>
      </trkpt>
      <trkpt lat="47.86408" lon="6.82092">
        <ele>633.2</ele>
        <time>2020-08-15T16:16:36Z</time>
      </trkpt>
      <trkpt lat="47.86407" lon="6.82085">
        <ele>633.9</ele>
        <time>2020-08-15T16:16:41Z</time>
      </trkpt>
      <trkpt lat="47.86405" lon="6.82078">
        <ele>634.7</ele>
        <time>2020-08-15T16:16:46Z</time>
      </trkpt>
      <trkpt lat="47.86403" lon="6.82072">
        <ele>635.3</ele>
        <time>2020-08-15T16:16:51Z</time>
      </trkpt>
      <trkpt lat="47.864" lon="6.82067">
        <ele>636</ele>
        <time>2020-08-15T16:16:57Z</time>
      </trkpt>
      <trkpt lat="47.86396" lon="6.82063">
        <ele>636.7</ele>
        <time>2020-08-15T16:17:03Z</time>
      </trkpt>
      <trkpt lat="47.86394" lon="6.82056">
        <ele>637.3</ele>
        <time>2020-08-15T16:17:17Z</time>
      </trkpt>
      <trkpt lat="47.86391" lon="6.82051">
        <ele>637.6</ele>
        <time>2020-08-15T16:17:23Z</time>
      </trkpt>
      <trkpt lat="47.86387" lon="6.82046">
        <ele>638</ele>
        <time>2020-08-15T16:17:28Z</time>
      </trkpt>
      <trkpt lat="47.86384" lon="6.82039">
        <ele>638.6</ele>
        <time>2020-08-15T16:17:33Z</time>
      </trkpt>
      <trkpt lat="47.86382" lon="6.82033">
        <ele>639.1</ele>
        <time>2020-08-15T16:17:38Z</time>
      </trkpt>
      <trkpt lat="47.86379" lon="6.82027">
        <ele>639.6</ele>
        <time>2020-08-15T16:17:43Z</time>
      </trkpt>
      <trkpt lat="47.86375" lon="6.82023">
        <ele>640.4</ele>
        <time>2020-08-15T16:17:48Z</time>
      </trkpt>
      <trkpt lat="47.86371" lon="6.82019">
        <ele>641.6</ele>
        <time>2020-08-15T16:17:54Z</time>
      </trkpt>
      <trkpt lat="47.86368" lon="6.82013">
        <ele>642.6</ele>
        <time>2020-08-15T16:17:59Z</time>
      </trkpt>
      <trkpt lat="47.86364" lon="6.82008">
        <ele>643.4</ele>
        <time>2020-08-15T16:18:04Z</time>
      </trkpt>
      <trkpt lat="47.8636" lon="6.82004">
        <ele>644.9</ele>
        <time>2020-08-15T16:18:13Z</time>
      </trkpt>
      <trkpt lat="47.86356" lon="6.82">
        <ele>646.5</ele>
        <time>2020-08-15T16:18:42Z</time>
      </trkpt>
      <trkpt lat="47.86352" lon="6.81995">
        <ele>646.3</ele>
        <time>2020-08-15T16:18:46Z</time>
      </trkpt>
      <trkpt lat="47.8635" lon="6.81989">
        <ele>646.1</ele>
        <time>2020-08-15T16:18:50Z</time>
      </trkpt>
      <trkpt lat="47.86347" lon="6.81982">
        <ele>645.9</ele>
        <time>2020-08-15T16:18:54Z</time>
      </trkpt>
      <trkpt lat="47.86345" lon="6.81976">
        <ele>645.9</ele>
        <time>2020-08-15T16:18:58Z</time>
      </trkpt>
      <trkpt lat="47.86341" lon="6.81971">
        <ele>645.9</ele>
        <time>2020-08-15T16:19:03Z</time>
      </trkpt>
      <trkpt lat="47.86339" lon="6.81965">
        <ele>646.2</ele>
        <time>2020-08-15T16:19:08Z</time>
      </trkpt>
      <trkpt lat="47.86336" lon="6.8196">
        <ele>646.7</ele>
        <time>2020-08-15T16:19:13Z</time>
      </trkpt>
      <trkpt lat="47.86333" lon="6.81954">
        <ele>647.6</ele>
        <time>2020-08-15T16:19:18Z</time>
      </trkpt>
      <trkpt lat="47.8633" lon="6.81948">
        <ele>648.5</ele>
        <time>2020-08-15T16:19:24Z</time>
      </trkpt>
      <trkpt lat="47.86327" lon="6.81942">
        <ele>649.7</ele>
        <time>2020-08-15T16:19:30Z</time>
      </trkpt>
      <trkpt lat="47.86324" lon="6.81935">
        <ele>650.8</ele>
        <time>2020-08-15T16:19:35Z</time>
      </trkpt>
      <trkpt lat="47.8632" lon="6.81929">
        <ele>651.9</ele>
        <time>2020-08-15T16:19:40Z</time>
      </trkpt>
      <trkpt lat="47.86317" lon="6.81925">
        <ele>652.8</ele>
        <time>2020-08-15T16:19:45Z</time>
      </trkpt>
      <trkpt lat="47.86315" lon="6.81918">
        <ele>653.9</ele>
        <time>2020-08-15T16:19:51Z</time>
      </trkpt>
      <trkpt lat="47.86314" lon="6.8191">
        <ele>654.9</ele>
        <time>2020-08-15T16:19:56Z</time>
      </trkpt>
      <trkpt lat="47.86314" lon="6.81903">
        <ele>655.6</ele>
        <time>2020-08-15T16:20:00Z</time>
      </trkpt>
      <trkpt lat="47.86312" lon="6.81896">
        <ele>656.3</ele>
        <time>2020-08-15T16:20:05Z</time>
      </trkpt>
      <trkpt lat="47.86311" lon="6.81889">
        <ele>657</ele>
        <time>2020-08-15T16:20:11Z</time>
      </trkpt>
      <trkpt lat="47.8631" lon="6.81882">
        <ele>657.3</ele>
        <time>2020-08-15T16:20:16Z</time>
      </trkpt>
      <trkpt lat="47.86312" lon="6.81875">
        <ele>657.8</ele>
        <time>2020-08-15T16:20:22Z</time>
      </trkpt>
      <trkpt lat="47.86315" lon="6.81871">
        <ele>658.4</ele>
        <time>2020-08-15T16:20:36Z</time>
      </trkpt>
      <trkpt lat="47.86317" lon="6.81863">
        <ele>658</ele>
        <time>2020-08-15T16:20:44Z</time>
      </trkpt>
      <trkpt lat="47.86319" lon="6.81857">
        <ele>657.8</ele>
        <time>2020-08-15T16:20:49Z</time>
      </trkpt>
      <trkpt lat="47.86319" lon="6.8185">
        <ele>657.7</ele>
        <time>2020-08-15T16:20:55Z</time>
      </trkpt>
      <trkpt lat="47.8632" lon="6.81842">
        <ele>658</ele>
        <time>2020-08-15T16:21:00Z</time>
      </trkpt>
      <trkpt lat="47.86321" lon="6.81835">
        <ele>658.3</ele>
        <time>2020-08-15T16:21:05Z</time>
      </trkpt>
      <trkpt lat="47.86321" lon="6.81828">
        <ele>659.1</ele>
        <time>2020-08-15T16:21:16Z</time>
      </trkpt>
      <trkpt lat="47.8632" lon="6.81821">
        <ele>659.7</ele>
        <time>2020-08-15T16:21:22Z</time>
      </trkpt>
      <trkpt lat="47.86323" lon="6.81828">
        <ele>661.1</ele>
        <time>2020-08-15T16:22:32Z</time>
      </trkpt>
      <trkpt lat="47.86325" lon="6.81834">
        <ele>660.8</ele>
        <time>2020-08-15T16:22:38Z</time>
      </trkpt>
      <trkpt lat="47.86324" lon="6.81842">
        <ele>660.6</ele>
        <time>2020-08-15T16:22:43Z</time>
      </trkpt>
      <trkpt lat="47.86324" lon="6.81849">
        <ele>660.4</ele>
        <time>2020-08-15T16:22:47Z</time>
      </trkpt>
      <trkpt lat="47.86324" lon="6.81857">
        <ele>660.3</ele>
        <time>2020-08-15T16:22:51Z</time>
      </trkpt>
      <trkpt lat="47.86326" lon="6.81864">
        <ele>660.1</ele>
        <time>2020-08-15T16:22:56Z</time>
      </trkpt>
      <trkpt lat="47.86329" lon="6.8187">
        <ele>659.8</ele>
        <time>2020-08-15T16:23:01Z</time>
      </trkpt>
      <trkpt lat="47.86334" lon="6.81875">
        <ele>659.4</ele>
        <time>2020-08-15T16:23:06Z</time>
      </trkpt>
      <trkpt lat="47.86337" lon="6.81881">
        <ele>658.9</ele>
        <time>2020-08-15T16:23:11Z</time>
      </trkpt>
      <trkpt lat="47.86339" lon="6.81887">
        <ele>658.5</ele>
        <time>2020-08-15T16:23:15Z</time>
      </trkpt>
      <trkpt lat="47.86344" lon="6.81894">
        <ele>658.3</ele>
        <time>2020-08-15T16:23:19Z</time>
      </trkpt>
      <trkpt lat="47.86347" lon="6.819">
        <ele>658.6</ele>
        <time>2020-08-15T16:23:24Z</time>
      </trkpt>
      <trkpt lat="47.86351" lon="6.81905">
        <ele>659.9</ele>
        <time>2020-08-15T16:23:31Z</time>
      </trkpt>
      <trkpt lat="47.86355" lon="6.81909">
        <ele>661.1</ele>
        <time>2020-08-15T16:23:36Z</time>
      </trkpt>
      <trkpt lat="47.86359" lon="6.81912">
        <ele>663.1</ele>
        <time>2020-08-15T16:23:44Z</time>
      </trkpt>
      <trkpt lat="47.86363" lon="6.81913">
        <ele>665</ele>
        <time>2020-08-15T16:24:06Z</time>
      </trkpt>
      <trkpt lat="47.86367" lon="6.81915">
        <ele>666.2</ele>
        <time>2020-08-15T16:24:12Z</time>
      </trkpt>
      <trkpt lat="47.86371" lon="6.8192">
        <ele>668.1</ele>
        <time>2020-08-15T16:24:23Z</time>
      </trkpt>
      <trkpt lat="47.86367" lon="6.81918">
        <ele>670</ele>
        <time>2020-08-15T16:26:46Z</time>
      </trkpt>
      <trkpt lat="47.86362" lon="6.81916">
        <ele>671.1</ele>
        <time>2020-08-15T16:27:32Z</time>
      </trkpt>
      <trkpt lat="47.86358" lon="6.81913">
        <ele>671</ele>
        <time>2020-08-15T16:27:42Z</time>
      </trkpt>
      <trkpt lat="47.86354" lon="6.81909">
        <ele>670.6</ele>
        <time>2020-08-15T16:27:58Z</time>
      </trkpt>
      <trkpt lat="47.8635" lon="6.81905">
        <ele>670.1</ele>
        <time>2020-08-15T16:28:04Z</time>
      </trkpt>
      <trkpt lat="47.86346" lon="6.819">
        <ele>669.3</ele>
        <time>2020-08-15T16:28:10Z</time>
      </trkpt>
      <trkpt lat="47.86342" lon="6.81896">
        <ele>668.6</ele>
        <time>2020-08-15T16:28:15Z</time>
      </trkpt>
      <trkpt lat="47.86338" lon="6.8189">
        <ele>667.8</ele>
        <time>2020-08-15T16:28:20Z</time>
      </trkpt>
      <trkpt lat="47.86334" lon="6.81885">
        <ele>667.2</ele>
        <time>2020-08-15T16:28:25Z</time>
      </trkpt>
      <trkpt lat="47.8633" lon="6.81879">
        <ele>666.6</ele>
        <time>2020-08-15T16:28:31Z</time>
      </trkpt>
      <trkpt lat="47.86327" lon="6.81874">
        <ele>666.2</ele>
        <time>2020-08-15T16:28:39Z</time>
      </trkpt>
      <trkpt lat="47.86325" lon="6.81867">
        <ele>665.9</ele>
        <time>2020-08-15T16:28:51Z</time>
      </trkpt>
      <trkpt lat="47.86324" lon="6.8186">
        <ele>665.7</ele>
        <time>2020-08-15T16:28:56Z</time>
      </trkpt>
      <trkpt lat="47.86324" lon="6.81852">
        <ele>665.5</ele>
        <time>2020-08-15T16:29:02Z</time>
      </trkpt>
      <trkpt lat="47.86322" lon="6.81846">
        <ele>665.1</ele>
        <time>2020-08-15T16:29:08Z</time>
      </trkpt>
      <trkpt lat="47.86322" lon="6.81838">
        <ele>664.5</ele>
        <time>2020-08-15T16:29:14Z</time>
      </trkpt>
      <trkpt lat="47.86322" lon="6.8183">
        <ele>664.1</ele>
        <time>2020-08-15T16:29:19Z</time>
      </trkpt>
      <trkpt lat="47.86322" lon="6.81823">
        <ele>663.7</ele>
        <time>2020-08-15T16:29:23Z</time>
      </trkpt>
      <trkpt lat="47.8632" lon="6.81817">
        <ele>663.2</ele>
        <time>2020-08-15T16:29:27Z</time>
      </trkpt>
      <trkpt lat="47.86317" lon="6.81812">
        <ele>662.8</ele>
        <time>2020-08-15T16:29:31Z</time>
      </trkpt>
      <trkpt lat="47.86312" lon="6.81808">
        <ele>662.2</ele>
        <time>2020-08-15T16:29:36Z</time>
      </trkpt>
      <trkpt lat="47.86307" lon="6.81808">
        <ele>661.8</ele>
        <time>2020-08-15T16:29:41Z</time>
      </trkpt>
      <trkpt lat="47.86302" lon="6.81812">
        <ele>661.5</ele>
        <time>2020-08-15T16:29:45Z</time>
      </trkpt>
      <trkpt lat="47.86297" lon="6.81816">
        <ele>661.2</ele>
        <time>2020-08-15T16:29:49Z</time>
      </trkpt>
      <trkpt lat="47.86293" lon="6.8182">
        <ele>661</ele>
        <time>2020-08-15T16:29:53Z</time>
      </trkpt>
      <trkpt lat="47.86292" lon="6.81827">
        <ele>661.2</ele>
        <time>2020-08-15T16:30:04Z</time>
      </trkpt>
      <trkpt lat="47.86288" lon="6.8183">
        <ele>661.2</ele>
        <time>2020-08-15T16:30:10Z</time>
      </trkpt>
      <trkpt lat="47.86284" lon="6.81834">
        <ele>661.3</ele>
        <time>2020-08-15T16:30:20Z</time>
      </trkpt>
      <trkpt lat="47.86279" lon="6.81838">
        <ele>661.3</ele>
        <time>2020-08-15T16:30:24Z</time>
      </trkpt>
      <trkpt lat="47.86277" lon="6.81844">
        <ele>661.3</ele>
        <time>2020-08-15T16:30:30Z</time>
      </trkpt>
      <trkpt lat="47.86273" lon="6.81849">
        <ele>661.3</ele>
        <time>2020-08-15T16:30:43Z</time>
      </trkpt>
      <trkpt lat="47.86269" lon="6.81854">
        <ele>661.7</ele>
        <time>2020-08-15T16:30:49Z</time>
      </trkpt>
      <trkpt lat="47.86267" lon="6.81859">
        <ele>662.4</ele>
        <time>2020-08-15T16:30:54Z</time>
      </trkpt>
      <trkpt lat="47.86263" lon="6.81863">
        <ele>663.1</ele>
        <time>2020-08-15T16:30:58Z</time>
      </trkpt>
      <trkpt lat="47.86258" lon="6.81865">
        <ele>663.9</ele>
        <time>2020-08-15T16:31:02Z</time>
      </trkpt>
      <trkpt lat="47.86254" lon="6.8187">
        <ele>664.8</ele>
        <time>2020-08-15T16:31:07Z</time>
      </trkpt>
      <trkpt lat="47.86251" lon="6.81877">
        <ele>665.6</ele>
        <time>2020-08-15T16:31:12Z</time>
      </trkpt>
      <trkpt lat="47.86248" lon="6.81884">
        <ele>666.5</ele>
        <time>2020-08-15T16:31:17Z</time>
      </trkpt>
      <trkpt lat="47.86245" lon="6.81888">
        <ele>667.5</ele>
        <time>2020-08-15T16:31:23Z</time>
      </trkpt>
      <trkpt lat="47.8624" lon="6.8189">
        <ele>668.4</ele>
        <time>2020-08-15T16:31:28Z</time>
      </trkpt>
      <trkpt lat="47.86235" lon="6.81891">
        <ele>669.2</ele>
        <time>2020-08-15T16:31:33Z</time>
      </trkpt>
      <trkpt lat="47.8623" lon="6.81892">
        <ele>669.9</ele>
        <time>2020-08-15T16:31:38Z</time>
      </trkpt>
      <trkpt lat="47.86225" lon="6.81894">
        <ele>670.3</ele>
        <time>2020-08-15T16:31:42Z</time>
      </trkpt>
      <trkpt lat="47.86221" lon="6.81896">
        <ele>670.9</ele>
        <time>2020-08-15T16:31:48Z</time>
      </trkpt>
      <trkpt lat="47.86216" lon="6.81898">
        <ele>672.1</ele>
        <time>2020-08-15T16:32:24Z</time>
      </trkpt>
      <trkpt lat="47.86219" lon="6.81892">
        <ele>672.2</ele>
        <time>2020-08-15T16:34:31Z</time>
      </trkpt>
      <trkpt lat="47.86217" lon="6.81899">
        <ele>673.5</ele>
        <time>2020-08-15T16:35:15Z</time>
      </trkpt>
      <trkpt lat="47.86216" lon="6.81892">
        <ele>670.9</ele>
        <time>2020-08-15T16:41:40Z</time>
      </trkpt>
      <trkpt lat="47.86212" lon="6.8189">
        <ele>670.4</ele>
        <time>2020-08-15T16:41:50Z</time>
      </trkpt>
      <trkpt lat="47.86207" lon="6.81893">
        <ele>670.9</ele>
        <time>2020-08-15T16:43:01Z</time>
      </trkpt>
      <trkpt lat="47.86202" lon="6.81894">
        <ele>670.6</ele>
        <time>2020-08-15T16:43:07Z</time>
      </trkpt>
      <trkpt lat="47.86198" lon="6.81894">
        <ele>670.3</ele>
        <time>2020-08-15T16:43:25Z</time>
      </trkpt>
      <trkpt lat="47.86193" lon="6.81893">
        <ele>670.7</ele>
        <time>2020-08-15T16:43:43Z</time>
      </trkpt>
      <trkpt lat="47.86188" lon="6.81892">
        <ele>670.7</ele>
        <time>2020-08-15T16:43:52Z</time>
      </trkpt>
      <trkpt lat="47.86184" lon="6.81891">
        <ele>670.6</ele>
        <time>2020-08-15T16:44:00Z</time>
      </trkpt>
      <trkpt lat="47.86179" lon="6.81888">
        <ele>670.3</ele>
        <time>2020-08-15T16:44:05Z</time>
      </trkpt>
      <trkpt lat="47.86175" lon="6.81886">
        <ele>670</ele>
        <time>2020-08-15T16:44:10Z</time>
      </trkpt>
      <trkpt lat="47.86169" lon="6.81883">
        <ele>669.6</ele>
        <time>2020-08-15T16:44:15Z</time>
      </trkpt>
      <trkpt lat="47.86166" lon="6.81879">
        <ele>669.3</ele>
        <time>2020-08-15T16:44:19Z</time>
      </trkpt>
      <trkpt lat="47.86161" lon="6.81876">
        <ele>669.1</ele>
        <time>2020-08-15T16:44:23Z</time>
      </trkpt>
      <trkpt lat="47.86157" lon="6.81873">
        <ele>668.9</ele>
        <time>2020-08-15T16:44:27Z</time>
      </trkpt>
      <trkpt lat="47.86151" lon="6.8187">
        <ele>668.6</ele>
        <time>2020-08-15T16:44:31Z</time>
      </trkpt>
      <trkpt lat="47.86148" lon="6.81866">
        <ele>668</ele>
        <time>2020-08-15T16:44:37Z</time>
      </trkpt>
      <trkpt lat="47.86142" lon="6.81865">
        <ele>667.5</ele>
        <time>2020-08-15T16:44:42Z</time>
      </trkpt>
      <trkpt lat="47.86137" lon="6.81863">
        <ele>666.7</ele>
        <time>2020-08-15T16:44:47Z</time>
      </trkpt>
      <trkpt lat="47.86132" lon="6.81862">
        <ele>666</ele>
        <time>2020-08-15T16:44:51Z</time>
      </trkpt>
      <trkpt lat="47.86128" lon="6.8186">
        <ele>665.5</ele>
        <time>2020-08-15T16:44:57Z</time>
      </trkpt>
      <trkpt lat="47.86124" lon="6.81856">
        <ele>665.1</ele>
        <time>2020-08-15T16:45:18Z</time>
      </trkpt>
      <trkpt lat="47.86119" lon="6.81854">
        <ele>664.9</ele>
        <time>2020-08-15T16:45:27Z</time>
      </trkpt>
      <trkpt lat="47.86115" lon="6.81852">
        <ele>664.7</ele>
        <time>2020-08-15T16:45:32Z</time>
      </trkpt>
      <trkpt lat="47.8611" lon="6.81851">
        <ele>664.6</ele>
        <time>2020-08-15T16:45:36Z</time>
      </trkpt>
      <trkpt lat="47.86105" lon="6.81849">
        <ele>664.5</ele>
        <time>2020-08-15T16:45:41Z</time>
      </trkpt>
      <trkpt lat="47.861" lon="6.81851">
        <ele>664.5</ele>
        <time>2020-08-15T16:45:46Z</time>
      </trkpt>
      <trkpt lat="47.86095" lon="6.81852">
        <ele>664.5</ele>
        <time>2020-08-15T16:45:52Z</time>
      </trkpt>
      <trkpt lat="47.86091" lon="6.81847">
        <ele>664.8</ele>
        <time>2020-08-15T16:45:57Z</time>
      </trkpt>
      <trkpt lat="47.86087" lon="6.81843">
        <ele>665.1</ele>
        <time>2020-08-15T16:46:04Z</time>
      </trkpt>
      <trkpt lat="47.86082" lon="6.81841">
        <ele>665.1</ele>
        <time>2020-08-15T16:46:11Z</time>
      </trkpt>
      <trkpt lat="47.86077" lon="6.8184">
        <ele>664.8</ele>
        <time>2020-08-15T16:46:16Z</time>
      </trkpt>
      <trkpt lat="47.86073" lon="6.81838">
        <ele>664.5</ele>
        <time>2020-08-15T16:46:21Z</time>
      </trkpt>
      <trkpt lat="47.86069" lon="6.81833">
        <ele>663.5</ele>
        <time>2020-08-15T16:46:30Z</time>
      </trkpt>
      <trkpt lat="47.86065" lon="6.81831">
        <ele>663.1</ele>
        <time>2020-08-15T16:46:35Z</time>
      </trkpt>
      <trkpt lat="47.8606" lon="6.81827">
        <ele>662.5</ele>
        <time>2020-08-15T16:46:40Z</time>
      </trkpt>
      <trkpt lat="47.86057" lon="6.81822">
        <ele>661.8</ele>
        <time>2020-08-15T16:46:44Z</time>
      </trkpt>
      <trkpt lat="47.86053" lon="6.81818">
        <ele>661.2</ele>
        <time>2020-08-15T16:46:48Z</time>
      </trkpt>
      <trkpt lat="47.86049" lon="6.81815">
        <ele>660.6</ele>
        <time>2020-08-15T16:46:52Z</time>
      </trkpt>
      <trkpt lat="47.86044" lon="6.81811">
        <ele>660.1</ele>
        <time>2020-08-15T16:46:57Z</time>
      </trkpt>
      <trkpt lat="47.8604" lon="6.81807">
        <ele>659.6</ele>
        <time>2020-08-15T16:47:02Z</time>
      </trkpt>
      <trkpt lat="47.86036" lon="6.81803">
        <ele>659.4</ele>
        <time>2020-08-15T16:47:06Z</time>
      </trkpt>
      <trkpt lat="47.86034" lon="6.81797">
        <ele>659.2</ele>
        <time>2020-08-15T16:47:11Z</time>
      </trkpt>
      <trkpt lat="47.8603" lon="6.81791">
        <ele>658.8</ele>
        <time>2020-08-15T16:47:17Z</time>
      </trkpt>
      <trkpt lat="47.86027" lon="6.81786">
        <ele>658.2</ele>
        <time>2020-08-15T16:47:22Z</time>
      </trkpt>
      <trkpt lat="47.86024" lon="6.8178">
        <ele>657.4</ele>
        <time>2020-08-15T16:47:26Z</time>
      </trkpt>
      <trkpt lat="47.86023" lon="6.81774">
        <ele>656.5</ele>
        <time>2020-08-15T16:47:33Z</time>
      </trkpt>
      <trkpt lat="47.86015" lon="6.81772">
        <ele>655.8</ele>
        <time>2020-08-15T16:47:56Z</time>
      </trkpt>
      <trkpt lat="47.8601" lon="6.8177">
        <ele>655.8</ele>
        <time>2020-08-15T16:48:00Z</time>
      </trkpt>
      <trkpt lat="47.86015" lon="6.81768">
        <ele>654.9</ele>
        <time>2020-08-15T16:48:21Z</time>
      </trkpt>
      <trkpt lat="47.8602" lon="6.81767">
        <ele>654.6</ele>
        <time>2020-08-15T16:48:26Z</time>
      </trkpt>
      <trkpt lat="47.86025" lon="6.81767">
        <ele>654.5</ele>
        <time>2020-08-15T16:48:32Z</time>
      </trkpt>
      <trkpt lat="47.8603" lon="6.81764">
        <ele>654.3</ele>
        <time>2020-08-15T16:48:37Z</time>
      </trkpt>
      <trkpt lat="47.86034" lon="6.8176">
        <ele>654.3</ele>
        <time>2020-08-15T16:48:44Z</time>
      </trkpt>
      <trkpt lat="47.86028" lon="6.81762">
        <ele>655.5</ele>
        <time>2020-08-15T16:48:54Z</time>
      </trkpt>
      <trkpt lat="47.86024" lon="6.81766">
        <ele>655.8</ele>
        <time>2020-08-15T16:48:58Z</time>
      </trkpt>
      <trkpt lat="47.86019" lon="6.81769">
        <ele>656.2</ele>
        <time>2020-08-15T16:49:02Z</time>
      </trkpt>
      <trkpt lat="47.86012" lon="6.81771">
        <ele>656.4</ele>
        <time>2020-08-15T16:49:06Z</time>
      </trkpt>
      <trkpt lat="47.86006" lon="6.81775">
        <ele>656.5</ele>
        <time>2020-08-15T16:49:10Z</time>
      </trkpt>
      <trkpt lat="47.86001" lon="6.81775">
        <ele>656.4</ele>
        <time>2020-08-15T16:49:15Z</time>
      </trkpt>
      <trkpt lat="47.85996" lon="6.8177">
        <ele>654.8</ele>
        <time>2020-08-15T16:49:46Z</time>
      </trkpt>
      <trkpt lat="47.85993" lon="6.81766">
        <ele>654.4</ele>
        <time>2020-08-15T16:49:50Z</time>
      </trkpt>
      <trkpt lat="47.85988" lon="6.81763">
        <ele>653.7</ele>
        <time>2020-08-15T16:49:56Z</time>
      </trkpt>
      <trkpt lat="47.85984" lon="6.81758">
        <ele>652.9</ele>
        <time>2020-08-15T16:50:02Z</time>
      </trkpt>
      <trkpt lat="47.85981" lon="6.81754">
        <ele>652.4</ele>
        <time>2020-08-15T16:50:06Z</time>
      </trkpt>
      <trkpt lat="47.85977" lon="6.81748">
        <ele>651.9</ele>
        <time>2020-08-15T16:50:10Z</time>
      </trkpt>
      <trkpt lat="47.85975" lon="6.81741">
        <ele>651.2</ele>
        <time>2020-08-15T16:50:14Z</time>
      </trkpt>
      <trkpt lat="47.85973" lon="6.81735">
        <ele>650.5</ele>
        <time>2020-08-15T16:50:18Z</time>
      </trkpt>
      <trkpt lat="47.85969" lon="6.8173">
        <ele>649.9</ele>
        <time>2020-08-15T16:50:22Z</time>
      </trkpt>
      <trkpt lat="47.85965" lon="6.81726">
        <ele>649.4</ele>
        <time>2020-08-15T16:50:26Z</time>
      </trkpt>
      <trkpt lat="47.85961" lon="6.8172">
        <ele>648.8</ele>
        <time>2020-08-15T16:50:31Z</time>
      </trkpt>
      <trkpt lat="47.85958" lon="6.81716">
        <ele>648.2</ele>
        <time>2020-08-15T16:50:36Z</time>
      </trkpt>
      <trkpt lat="47.85954" lon="6.8171">
        <ele>647.6</ele>
        <time>2020-08-15T16:50:41Z</time>
      </trkpt>
      <trkpt lat="47.85952" lon="6.81703">
        <ele>647.1</ele>
        <time>2020-08-15T16:50:46Z</time>
      </trkpt>
      <trkpt lat="47.85951" lon="6.81695">
        <ele>646.5</ele>
        <time>2020-08-15T16:50:51Z</time>
      </trkpt>
      <trkpt lat="47.85949" lon="6.81687">
        <ele>645.9</ele>
        <time>2020-08-15T16:50:55Z</time>
      </trkpt>
      <trkpt lat="47.85946" lon="6.81682">
        <ele>645.2</ele>
        <time>2020-08-15T16:51:00Z</time>
      </trkpt>
      <trkpt lat="47.85941" lon="6.81678">
        <ele>644.4</ele>
        <time>2020-08-15T16:51:05Z</time>
      </trkpt>
      <trkpt lat="47.85936" lon="6.81676">
        <ele>643.6</ele>
        <time>2020-08-15T16:51:10Z</time>
      </trkpt>
      <trkpt lat="47.85932" lon="6.81672">
        <ele>642.9</ele>
        <time>2020-08-15T16:51:15Z</time>
      </trkpt>
      <trkpt lat="47.85931" lon="6.81664">
        <ele>642</ele>
        <time>2020-08-15T16:51:21Z</time>
      </trkpt>
      <trkpt lat="47.85928" lon="6.81657">
        <ele>641.3</ele>
        <time>2020-08-15T16:51:27Z</time>
      </trkpt>
      <trkpt lat="47.85922" lon="6.81665">
        <ele>640.2</ele>
        <time>2020-08-15T16:52:22Z</time>
      </trkpt>
      <trkpt lat="47.85921" lon="6.81671">
        <ele>640</ele>
        <time>2020-08-15T16:52:27Z</time>
      </trkpt>
      <trkpt lat="47.85925" lon="6.81677">
        <ele>639.9</ele>
        <time>2020-08-15T16:52:33Z</time>
      </trkpt>
      <trkpt lat="47.85929" lon="6.81682">
        <ele>639.9</ele>
        <time>2020-08-15T16:52:39Z</time>
      </trkpt>
      <trkpt lat="47.85933" lon="6.81686">
        <ele>639.9</ele>
        <time>2020-08-15T16:52:45Z</time>
      </trkpt>
      <trkpt lat="47.85937" lon="6.8169">
        <ele>639.9</ele>
        <time>2020-08-15T16:52:51Z</time>
      </trkpt>
      <trkpt lat="47.8594" lon="6.81696">
        <ele>639.8</ele>
        <time>2020-08-15T16:52:58Z</time>
      </trkpt>
      <trkpt lat="47.85941" lon="6.81703">
        <ele>639.8</ele>
        <time>2020-08-15T16:53:04Z</time>
      </trkpt>
      <trkpt lat="47.85943" lon="6.8171">
        <ele>639.8</ele>
        <time>2020-08-15T16:53:11Z</time>
      </trkpt>
      <trkpt lat="47.85943" lon="6.81717">
        <ele>639.8</ele>
        <time>2020-08-15T16:53:15Z</time>
      </trkpt>
      <trkpt lat="47.85945" lon="6.81725">
        <ele>639.7</ele>
        <time>2020-08-15T16:53:20Z</time>
      </trkpt>
      <trkpt lat="47.85945" lon="6.81732">
        <ele>639.6</ele>
        <time>2020-08-15T16:53:25Z</time>
      </trkpt>
      <trkpt lat="47.85944" lon="6.81738">
        <ele>639.4</ele>
        <time>2020-08-15T16:53:30Z</time>
      </trkpt>
      <trkpt lat="47.85944" lon="6.81746">
        <ele>639.1</ele>
        <time>2020-08-15T16:53:36Z</time>
      </trkpt>
      <trkpt lat="47.85945" lon="6.81753">
        <ele>638.8</ele>
        <time>2020-08-15T16:53:40Z</time>
      </trkpt>
      <trkpt lat="47.85946" lon="6.81761">
        <ele>638.5</ele>
        <time>2020-08-15T16:53:45Z</time>
      </trkpt>
      <trkpt lat="47.85949" lon="6.81767">
        <ele>638.1</ele>
        <time>2020-08-15T16:53:50Z</time>
      </trkpt>
      <trkpt lat="47.85951" lon="6.81773">
        <ele>637.8</ele>
        <time>2020-08-15T16:53:55Z</time>
      </trkpt>
      <trkpt lat="47.8595" lon="6.8178">
        <ele>637.5</ele>
        <time>2020-08-15T16:54:01Z</time>
      </trkpt>
      <trkpt lat="47.85952" lon="6.81788">
        <ele>637.4</ele>
        <time>2020-08-15T16:54:06Z</time>
      </trkpt>
      <trkpt lat="47.85955" lon="6.81793">
        <ele>637.1</ele>
        <time>2020-08-15T16:54:11Z</time>
      </trkpt>
      <trkpt lat="47.85954" lon="6.818">
        <ele>635.7</ele>
        <time>2020-08-15T16:54:19Z</time>
      </trkpt>
      <trkpt lat="47.85952" lon="6.81806">
        <ele>634.9</ele>
        <time>2020-08-15T16:54:24Z</time>
      </trkpt>
      <trkpt lat="47.8595" lon="6.818">
        <ele>633.7</ele>
        <time>2020-08-15T16:54:49Z</time>
      </trkpt>
      <trkpt lat="47.85948" lon="6.81793">
        <ele>633.7</ele>
        <time>2020-08-15T16:54:54Z</time>
      </trkpt>
      <trkpt lat="47.85948" lon="6.81786">
        <ele>633.7</ele>
        <time>2020-08-15T16:54:59Z</time>
      </trkpt>
      <trkpt lat="47.85948" lon="6.8178">
        <ele>634</ele>
        <time>2020-08-15T16:55:10Z</time>
      </trkpt>
      <trkpt lat="47.85944" lon="6.81775">
        <ele>634.1</ele>
        <time>2020-08-15T16:55:14Z</time>
      </trkpt>
      <trkpt lat="47.85941" lon="6.81769">
        <ele>634.2</ele>
        <time>2020-08-15T16:55:18Z</time>
      </trkpt>
      <trkpt lat="47.85938" lon="6.81764">
        <ele>634.2</ele>
        <time>2020-08-15T16:55:22Z</time>
      </trkpt>
      <trkpt lat="47.85934" lon="6.81758">
        <ele>634.1</ele>
        <time>2020-08-15T16:55:27Z</time>
      </trkpt>
      <trkpt lat="47.85931" lon="6.81752">
        <ele>634</ele>
        <time>2020-08-15T16:55:31Z</time>
      </trkpt>
      <trkpt lat="47.85927" lon="6.81745">
        <ele>633.7</ele>
        <time>2020-08-15T16:55:35Z</time>
      </trkpt>
      <trkpt lat="47.85924" lon="6.81738">
        <ele>633.3</ele>
        <time>2020-08-15T16:55:39Z</time>
      </trkpt>
      <trkpt lat="47.85922" lon="6.81731">
        <ele>632.7</ele>
        <time>2020-08-15T16:55:44Z</time>
      </trkpt>
      <trkpt lat="47.85919" lon="6.81724">
        <ele>632.3</ele>
        <time>2020-08-15T16:55:50Z</time>
      </trkpt>
      <trkpt lat="47.85915" lon="6.81719">
        <ele>632</ele>
        <time>2020-08-15T16:55:55Z</time>
      </trkpt>
      <trkpt lat="47.85912" lon="6.81713">
        <ele>631.8</ele>
        <time>2020-08-15T16:56:00Z</time>
      </trkpt>
      <trkpt lat="47.85909" lon="6.81707">
        <ele>631.9</ele>
        <time>2020-08-15T16:56:05Z</time>
      </trkpt>
      <trkpt lat="47.85906" lon="6.81702">
        <ele>631.9</ele>
        <time>2020-08-15T16:56:10Z</time>
      </trkpt>
      <trkpt lat="47.85903" lon="6.81696">
        <ele>632</ele>
        <time>2020-08-15T16:56:14Z</time>
      </trkpt>
      <trkpt lat="47.859" lon="6.8169">
        <ele>632.1</ele>
        <time>2020-08-15T16:56:20Z</time>
      </trkpt>
      <trkpt lat="47.85896" lon="6.81685">
        <ele>632</ele>
        <time>2020-08-15T16:56:25Z</time>
      </trkpt>
      <trkpt lat="47.85893" lon="6.8168">
        <ele>632.1</ele>
        <time>2020-08-15T16:56:30Z</time>
      </trkpt>
      <trkpt lat="47.85888" lon="6.81677">
        <ele>632.1</ele>
        <time>2020-08-15T16:56:35Z</time>
      </trkpt>
      <trkpt lat="47.85883" lon="6.81675">
        <ele>631.9</ele>
        <time>2020-08-15T16:56:39Z</time>
      </trkpt>
      <trkpt lat="47.8588" lon="6.81671">
        <ele>631.7</ele>
        <time>2020-08-15T16:56:44Z</time>
      </trkpt>
      <trkpt lat="47.85876" lon="6.81665">
        <ele>631.5</ele>
        <time>2020-08-15T16:56:49Z</time>
      </trkpt>
      <trkpt lat="47.85872" lon="6.81661">
        <ele>631.2</ele>
        <time>2020-08-15T16:56:54Z</time>
      </trkpt>
      <trkpt lat="47.85868" lon="6.81654">
        <ele>631</ele>
        <time>2020-08-15T16:56:59Z</time>
      </trkpt>
      <trkpt lat="47.85866" lon="6.81647">
        <ele>630.9</ele>
        <time>2020-08-15T16:57:03Z</time>
      </trkpt>
      <trkpt lat="47.85864" lon="6.8164">
        <ele>631</ele>
        <time>2020-08-15T16:57:08Z</time>
      </trkpt>
      <trkpt lat="47.8586" lon="6.81636">
        <ele>631.7</ele>
        <time>2020-08-15T16:58:49Z</time>
      </trkpt>
      <trkpt lat="47.85858" lon="6.81629">
        <ele>632</ele>
        <time>2020-08-15T16:58:56Z</time>
      </trkpt>
      <trkpt lat="47.85858" lon="6.81622">
        <ele>632.2</ele>
        <time>2020-08-15T16:59:01Z</time>
      </trkpt>
      <trkpt lat="47.85859" lon="6.81614">
        <ele>632.4</ele>
        <time>2020-08-15T16:59:06Z</time>
      </trkpt>
      <trkpt lat="47.85858" lon="6.81607">
        <ele>632.6</ele>
        <time>2020-08-15T16:59:11Z</time>
      </trkpt>
      <trkpt lat="47.85857" lon="6.81601">
        <ele>633</ele>
        <time>2020-08-15T16:59:20Z</time>
      </trkpt>
      <trkpt lat="47.85857" lon="6.81594">
        <ele>633.5</ele>
        <time>2020-08-15T16:59:32Z</time>
      </trkpt>
      <trkpt lat="47.85856" lon="6.81586">
        <ele>632.7</ele>
        <time>2020-08-15T17:00:02Z</time>
      </trkpt>
      <trkpt lat="47.85853" lon="6.8158">
        <ele>632.2</ele>
        <time>2020-08-15T17:00:07Z</time>
      </trkpt>
      <trkpt lat="47.85847" lon="6.81578">
        <ele>630.4</ele>
        <time>2020-08-15T17:00:33Z</time>
      </trkpt>
      <trkpt lat="47.85852" lon="6.81576">
        <ele>626.9</ele>
        <time>2020-08-15T17:00:57Z</time>
      </trkpt>
      <trkpt lat="47.85857" lon="6.8158">
        <ele>626.1</ele>
        <time>2020-08-15T17:01:02Z</time>
      </trkpt>
      <trkpt lat="47.8586" lon="6.81584">
        <ele>625.3</ele>
        <time>2020-08-15T17:01:06Z</time>
      </trkpt>
      <trkpt lat="47.85862" lon="6.81591">
        <ele>624.6</ele>
        <time>2020-08-15T17:01:10Z</time>
      </trkpt>
      <trkpt lat="47.85865" lon="6.81596">
        <ele>623.8</ele>
        <time>2020-08-15T17:01:15Z</time>
      </trkpt>
      <trkpt lat="47.85868" lon="6.8159">
        <ele>623.5</ele>
        <time>2020-08-15T17:01:37Z</time>
      </trkpt>
      <trkpt lat="47.85871" lon="6.81584">
        <ele>624.7</ele>
        <time>2020-08-15T17:01:43Z</time>
      </trkpt>
      <trkpt lat="47.85873" lon="6.81578">
        <ele>625.6</ele>
        <time>2020-08-15T17:01:48Z</time>
      </trkpt>
      <trkpt lat="47.85873" lon="6.81571">
        <ele>626.9</ele>
        <time>2020-08-15T17:01:56Z</time>
      </trkpt>
      <trkpt lat="47.85871" lon="6.81558">
        <ele>628.7</ele>
        <time>2020-08-15T17:02:26Z</time>
      </trkpt>
      <trkpt lat="47.85868" lon="6.81552">
        <ele>628.8</ele>
        <time>2020-08-15T17:02:30Z</time>
      </trkpt>
      <trkpt lat="47.85865" lon="6.81546">
        <ele>628.8</ele>
        <time>2020-08-15T17:02:43Z</time>
      </trkpt>
      <trkpt lat="47.85862" lon="6.81539">
        <ele>628.7</ele>
        <time>2020-08-15T17:02:50Z</time>
      </trkpt>
      <trkpt lat="47.85861" lon="6.81533">
        <ele>628.7</ele>
        <time>2020-08-15T17:02:57Z</time>
      </trkpt>
      <trkpt lat="47.85862" lon="6.81525">
        <ele>628.8</ele>
        <time>2020-08-15T17:03:03Z</time>
      </trkpt>
      <trkpt lat="47.85862" lon="6.81518">
        <ele>628.8</ele>
        <time>2020-08-15T17:03:08Z</time>
      </trkpt>
      <trkpt lat="47.85863" lon="6.8151">
        <ele>629</ele>
        <time>2020-08-15T17:03:13Z</time>
      </trkpt>
      <trkpt lat="47.85866" lon="6.81506">
        <ele>629.2</ele>
        <time>2020-08-15T17:03:19Z</time>
      </trkpt>
      <trkpt lat="47.8587" lon="6.81511">
        <ele>630.4</ele>
        <time>2020-08-15T17:03:55Z</time>
      </trkpt>
      <trkpt lat="47.85873" lon="6.81516">
        <ele>631</ele>
        <time>2020-08-15T17:04:08Z</time>
      </trkpt>
      <trkpt lat="47.85876" lon="6.81521">
        <ele>631.5</ele>
        <time>2020-08-15T17:04:19Z</time>
      </trkpt>
      <trkpt lat="47.8588" lon="6.81516">
        <ele>632.3</ele>
        <time>2020-08-15T17:04:46Z</time>
      </trkpt>
      <trkpt lat="47.85883" lon="6.8151">
        <ele>632.6</ele>
        <time>2020-08-15T17:04:52Z</time>
      </trkpt>
      <trkpt lat="47.85885" lon="6.81503">
        <ele>633</ele>
        <time>2020-08-15T17:04:58Z</time>
      </trkpt>
      <trkpt lat="47.85886" lon="6.81494">
        <ele>633.4</ele>
        <time>2020-08-15T17:05:03Z</time>
      </trkpt>
      <trkpt lat="47.85887" lon="6.81486">
        <ele>633.9</ele>
        <time>2020-08-15T17:05:07Z</time>
      </trkpt>
      <trkpt lat="47.85886" lon="6.81475">
        <ele>634.5</ele>
        <time>2020-08-15T17:05:38Z</time>
      </trkpt>
      <trkpt lat="47.85885" lon="6.81467">
        <ele>634.1</ele>
        <time>2020-08-15T17:05:42Z</time>
      </trkpt>
      <trkpt lat="47.85883" lon="6.81459">
        <ele>633.5</ele>
        <time>2020-08-15T17:06:02Z</time>
      </trkpt>
      <trkpt lat="47.85882" lon="6.81452">
        <ele>633.3</ele>
        <time>2020-08-15T17:06:09Z</time>
      </trkpt>
      <trkpt lat="47.85881" lon="6.81445">
        <ele>633.2</ele>
        <time>2020-08-15T17:06:14Z</time>
      </trkpt>
      <trkpt lat="47.85884" lon="6.81439">
        <ele>633.1</ele>
        <time>2020-08-15T17:06:19Z</time>
      </trkpt>
      <trkpt lat="47.85887" lon="6.81433">
        <ele>632.9</ele>
        <time>2020-08-15T17:06:24Z</time>
      </trkpt>
      <trkpt lat="47.85889" lon="6.81426">
        <ele>632.7</ele>
        <time>2020-08-15T17:06:30Z</time>
      </trkpt>
      <trkpt lat="47.8589" lon="6.8142">
        <ele>632.3</ele>
        <time>2020-08-15T17:06:36Z</time>
      </trkpt>
      <trkpt lat="47.85893" lon="6.81413">
        <ele>632</ele>
        <time>2020-08-15T17:06:44Z</time>
      </trkpt>
      <trkpt lat="47.85897" lon="6.81409">
        <ele>631.9</ele>
        <time>2020-08-15T17:06:50Z</time>
      </trkpt>
      <trkpt lat="47.85901" lon="6.81406">
        <ele>631.7</ele>
        <time>2020-08-15T17:06:55Z</time>
      </trkpt>
      <trkpt lat="47.85907" lon="6.81403">
        <ele>631.5</ele>
        <time>2020-08-15T17:06:59Z</time>
      </trkpt>
      <trkpt lat="47.85911" lon="6.81399">
        <ele>631.4</ele>
        <time>2020-08-15T17:07:03Z</time>
      </trkpt>
      <trkpt lat="47.85916" lon="6.81397">
        <ele>631.4</ele>
        <time>2020-08-15T17:07:08Z</time>
      </trkpt>
      <trkpt lat="47.85921" lon="6.81398">
        <ele>631.3</ele>
        <time>2020-08-15T17:07:17Z</time>
      </trkpt>
      <trkpt lat="47.85926" lon="6.81398">
        <ele>631.2</ele>
        <time>2020-08-15T17:07:24Z</time>
      </trkpt>
      <trkpt lat="47.8593" lon="6.81395">
        <ele>630.9</ele>
        <time>2020-08-15T17:07:29Z</time>
      </trkpt>
      <trkpt lat="47.85934" lon="6.8139">
        <ele>630.8</ele>
        <time>2020-08-15T17:07:36Z</time>
      </trkpt>
      <trkpt lat="47.85937" lon="6.81384">
        <ele>630.5</ele>
        <time>2020-08-15T17:07:42Z</time>
      </trkpt>
      <trkpt lat="47.85939" lon="6.81377">
        <ele>629.9</ele>
        <time>2020-08-15T17:07:48Z</time>
      </trkpt>
      <trkpt lat="47.8594" lon="6.8137">
        <ele>629.8</ele>
        <time>2020-08-15T17:07:53Z</time>
      </trkpt>
      <trkpt lat="47.85941" lon="6.81363">
        <ele>630.1</ele>
        <time>2020-08-15T17:07:58Z</time>
      </trkpt>
      <trkpt lat="47.85943" lon="6.81356">
        <ele>630.7</ele>
        <time>2020-08-15T17:08:04Z</time>
      </trkpt>
      <trkpt lat="47.85945" lon="6.81349">
        <ele>631.4</ele>
        <time>2020-08-15T17:08:13Z</time>
      </trkpt>
      <trkpt lat="47.8595" lon="6.81353">
        <ele>631.9</ele>
        <time>2020-08-15T17:08:22Z</time>
      </trkpt>
      <trkpt lat="47.85955" lon="6.81354">
        <ele>632.3</ele>
        <time>2020-08-15T17:08:28Z</time>
      </trkpt>
      <trkpt lat="47.8596" lon="6.81355">
        <ele>632.8</ele>
        <time>2020-08-15T17:08:34Z</time>
      </trkpt>
      <trkpt lat="47.85964" lon="6.81358">
        <ele>633.2</ele>
        <time>2020-08-15T17:08:40Z</time>
      </trkpt>
      <trkpt lat="47.85969" lon="6.81361">
        <ele>633.7</ele>
        <time>2020-08-15T17:09:11Z</time>
      </trkpt>
      <trkpt lat="47.85973" lon="6.81357">
        <ele>633.2</ele>
        <time>2020-08-15T17:09:17Z</time>
      </trkpt>
      <trkpt lat="47.85978" lon="6.81356">
        <ele>632.4</ele>
        <time>2020-08-15T17:09:25Z</time>
      </trkpt>
      <trkpt lat="47.85981" lon="6.81362">
        <ele>631.8</ele>
        <time>2020-08-15T17:09:30Z</time>
      </trkpt>
      <trkpt lat="47.85983" lon="6.81369">
        <ele>631.3</ele>
        <time>2020-08-15T17:09:34Z</time>
      </trkpt>
      <trkpt lat="47.85984" lon="6.81376">
        <ele>630.8</ele>
        <time>2020-08-15T17:09:38Z</time>
      </trkpt>
      <trkpt lat="47.85983" lon="6.81384">
        <ele>630.3</ele>
        <time>2020-08-15T17:09:42Z</time>
      </trkpt>
      <trkpt lat="47.85984" lon="6.81391">
        <ele>628.8</ele>
        <time>2020-08-15T17:10:03Z</time>
      </trkpt>
      <trkpt lat="47.85989" lon="6.81394">
        <ele>628.8</ele>
        <time>2020-08-15T17:10:06Z</time>
      </trkpt>
      <trkpt lat="47.85994" lon="6.81396">
        <ele>628.9</ele>
        <time>2020-08-15T17:10:10Z</time>
      </trkpt>
      <trkpt lat="47.85998" lon="6.81397">
        <ele>629</ele>
        <time>2020-08-15T17:10:16Z</time>
      </trkpt>
      <trkpt lat="47.85993" lon="6.81399">
        <ele>627.8</ele>
        <time>2020-08-15T17:10:58Z</time>
      </trkpt>
      <trkpt lat="47.85989" lon="6.81403">
        <ele>627.8</ele>
        <time>2020-08-15T17:11:01Z</time>
      </trkpt>
      <trkpt lat="47.85984" lon="6.81405">
        <ele>628.3</ele>
        <time>2020-08-15T17:11:05Z</time>
      </trkpt>
      <trkpt lat="47.85979" lon="6.81404">
        <ele>629.1</ele>
        <time>2020-08-15T17:11:11Z</time>
      </trkpt>
      <trkpt lat="47.85976" lon="6.81409">
        <ele>630.1</ele>
        <time>2020-08-15T17:11:22Z</time>
      </trkpt>
      <trkpt lat="47.85974" lon="6.81416">
        <ele>631</ele>
        <time>2020-08-15T17:11:37Z</time>
      </trkpt>
      <trkpt lat="47.85968" lon="6.81418">
        <ele>631.9</ele>
        <time>2020-08-15T17:12:49Z</time>
      </trkpt>
      <trkpt lat="47.85962" lon="6.81419">
        <ele>632.7</ele>
        <time>2020-08-15T17:12:54Z</time>
      </trkpt>
      <trkpt lat="47.85958" lon="6.81414">
        <ele>634.7</ele>
        <time>2020-08-15T17:13:01Z</time>
      </trkpt>
      <trkpt lat="47.85954" lon="6.8141">
        <ele>636.8</ele>
        <time>2020-08-15T17:13:15Z</time>
      </trkpt>
      <trkpt lat="47.8595" lon="6.81409">
        <ele>637.6</ele>
        <time>2020-08-15T17:13:19Z</time>
      </trkpt>
      <trkpt lat="47.85945" lon="6.81412">
        <ele>638.1</ele>
        <time>2020-08-15T17:13:24Z</time>
      </trkpt>
      <trkpt lat="47.85941" lon="6.81414">
        <ele>638.5</ele>
        <time>2020-08-15T17:13:29Z</time>
      </trkpt>
      <trkpt lat="47.85936" lon="6.81416">
        <ele>638.7</ele>
        <time>2020-08-15T17:13:33Z</time>
      </trkpt>
      <trkpt lat="47.85933" lon="6.81422">
        <ele>638.8</ele>
        <time>2020-08-15T17:13:40Z</time>
      </trkpt>
      <trkpt lat="47.8593" lon="6.81428">
        <ele>638.7</ele>
        <time>2020-08-15T17:13:46Z</time>
      </trkpt>
      <trkpt lat="47.85928" lon="6.81434">
        <ele>638.5</ele>
        <time>2020-08-15T17:13:51Z</time>
      </trkpt>
      <trkpt lat="47.85926" lon="6.81442">
        <ele>638.4</ele>
        <time>2020-08-15T17:13:56Z</time>
      </trkpt>
      <trkpt lat="47.85926" lon="6.81449">
        <ele>638.3</ele>
        <time>2020-08-15T17:14:02Z</time>
      </trkpt>
      <trkpt lat="47.85927" lon="6.81456">
        <ele>638.2</ele>
        <time>2020-08-15T17:14:09Z</time>
      </trkpt>
      <trkpt lat="47.85927" lon="6.81462">
        <ele>638.6</ele>
        <time>2020-08-15T17:14:19Z</time>
      </trkpt>
      <trkpt lat="47.85927" lon="6.81469">
        <ele>639.1</ele>
        <time>2020-08-15T17:14:29Z</time>
      </trkpt>
      <trkpt lat="47.85923" lon="6.81474">
        <ele>639.5</ele>
        <time>2020-08-15T17:14:34Z</time>
      </trkpt>
      <trkpt lat="47.8592" lon="6.81481">
        <ele>639.9</ele>
        <time>2020-08-15T17:14:40Z</time>
      </trkpt>
      <trkpt lat="47.85919" lon="6.81487">
        <ele>640.1</ele>
        <time>2020-08-15T17:14:45Z</time>
      </trkpt>
      <trkpt lat="47.85916" lon="6.81493">
        <ele>640.3</ele>
        <time>2020-08-15T17:14:51Z</time>
      </trkpt>
      <trkpt lat="47.85915" lon="6.81501">
        <ele>640.8</ele>
        <time>2020-08-15T17:14:58Z</time>
      </trkpt>
      <trkpt lat="47.85915" lon="6.81508">
        <ele>641.3</ele>
        <time>2020-08-15T17:15:04Z</time>
      </trkpt>
      <trkpt lat="47.8592" lon="6.81511">
        <ele>642.1</ele>
        <time>2020-08-15T17:15:11Z</time>
      </trkpt>
      <trkpt lat="47.85925" lon="6.81512">
        <ele>642.6</ele>
        <time>2020-08-15T17:15:16Z</time>
      </trkpt>
      <trkpt lat="47.85929" lon="6.81517">
        <ele>643.4</ele>
        <time>2020-08-15T17:15:22Z</time>
      </trkpt>
      <trkpt lat="47.85932" lon="6.81522">
        <ele>644.2</ele>
        <time>2020-08-15T17:15:27Z</time>
      </trkpt>
      <trkpt lat="47.85936" lon="6.81526">
        <ele>645.6</ele>
        <time>2020-08-15T17:15:33Z</time>
      </trkpt>
      <trkpt lat="47.85939" lon="6.81532">
        <ele>647.6</ele>
        <time>2020-08-15T17:15:39Z</time>
      </trkpt>
      <trkpt lat="47.85938" lon="6.81525">
        <ele>654.2</ele>
        <time>2020-08-15T17:16:00Z</time>
      </trkpt>
      <trkpt lat="47.85935" lon="6.81519">
        <ele>656.2</ele>
        <time>2020-08-15T17:16:07Z</time>
      </trkpt>
      <trkpt lat="47.85938" lon="6.81513">
        <ele>657</ele>
        <time>2020-08-15T17:16:12Z</time>
      </trkpt>
      <trkpt lat="47.8594" lon="6.81506">
        <ele>657.3</ele>
        <time>2020-08-15T17:16:16Z</time>
      </trkpt>
      <trkpt lat="47.85943" lon="6.815">
        <ele>657.5</ele>
        <time>2020-08-15T17:16:21Z</time>
      </trkpt>
      <trkpt lat="47.85943" lon="6.81493">
        <ele>658</ele>
        <time>2020-08-15T17:16:28Z</time>
      </trkpt>
      <trkpt lat="47.85947" lon="6.8149">
        <ele>658.4</ele>
        <time>2020-08-15T17:16:55Z</time>
      </trkpt>
      <trkpt lat="47.85952" lon="6.81487">
        <ele>657.5</ele>
        <time>2020-08-15T17:17:23Z</time>
      </trkpt>
      <trkpt lat="47.85955" lon="6.81482">
        <ele>659.3</ele>
        <time>2020-08-15T17:18:25Z</time>
      </trkpt>
      <trkpt lat="47.85957" lon="6.81476">
        <ele>659.5</ele>
        <time>2020-08-15T17:18:29Z</time>
      </trkpt>
      <trkpt lat="47.85961" lon="6.81471">
        <ele>659.9</ele>
        <time>2020-08-15T17:18:37Z</time>
      </trkpt>
      <trkpt lat="47.85964" lon="6.81477">
        <ele>660.5</ele>
        <time>2020-08-15T17:18:48Z</time>
      </trkpt>
      <trkpt lat="47.85963" lon="6.81483">
        <ele>660.8</ele>
        <time>2020-08-15T17:18:52Z</time>
      </trkpt>
      <trkpt lat="47.85963" lon="6.81491">
        <ele>661</ele>
        <time>2020-08-15T17:18:56Z</time>
      </trkpt>
      <trkpt lat="47.85966" lon="6.81496">
        <ele>661.3</ele>
        <time>2020-08-15T17:19:29Z</time>
      </trkpt>
      <trkpt lat="47.85971" lon="6.81502">
        <ele>660.5</ele>
        <time>2020-08-15T17:19:50Z</time>
      </trkpt>
      <trkpt lat="47.85976" lon="6.81506">
        <ele>660.8</ele>
        <time>2020-08-15T17:19:55Z</time>
      </trkpt>
      <trkpt lat="47.8598" lon="6.8151">
        <ele>661.4</ele>
        <time>2020-08-15T17:20:03Z</time>
      </trkpt>
      <trkpt lat="47.85984" lon="6.8151">
        <ele>662.1</ele>
        <time>2020-08-15T17:20:09Z</time>
      </trkpt>
      <trkpt lat="47.85983" lon="6.81518">
        <ele>663.3</ele>
        <time>2020-08-15T17:20:31Z</time>
      </trkpt>
      <trkpt lat="47.85984" lon="6.81525">
        <ele>663.2</ele>
        <time>2020-08-15T17:20:36Z</time>
      </trkpt>
      <trkpt lat="47.85984" lon="6.81532">
        <ele>663.5</ele>
        <time>2020-08-15T17:20:42Z</time>
      </trkpt>
      <trkpt lat="47.85979" lon="6.81533">
        <ele>664.3</ele>
        <time>2020-08-15T17:20:53Z</time>
      </trkpt>
      <trkpt lat="47.85982" lon="6.81538">
        <ele>665.9</ele>
        <time>2020-08-15T17:21:46Z</time>
      </trkpt>
      <trkpt lat="47.85982" lon="6.81545">
        <ele>665.6</ele>
        <time>2020-08-15T17:22:03Z</time>
      </trkpt>
      <trkpt lat="47.85987" lon="6.81545">
        <ele>666.2</ele>
        <time>2020-08-15T17:22:11Z</time>
      </trkpt>
      <trkpt lat="47.8599" lon="6.81552">
        <ele>667.4</ele>
        <time>2020-08-15T17:22:37Z</time>
      </trkpt>
      <trkpt lat="47.85992" lon="6.81558">
        <ele>668.2</ele>
        <time>2020-08-15T17:22:54Z</time>
      </trkpt>
      <trkpt lat="47.85995" lon="6.81564">
        <ele>668.7</ele>
        <time>2020-08-15T17:23:00Z</time>
      </trkpt>
      <trkpt lat="47.85999" lon="6.81569">
        <ele>669.4</ele>
        <time>2020-08-15T17:23:06Z</time>
      </trkpt>
      <trkpt lat="47.86002" lon="6.81576">
        <ele>669.9</ele>
        <time>2020-08-15T17:23:11Z</time>
      </trkpt>
      <trkpt lat="47.86004" lon="6.81582">
        <ele>670.7</ele>
        <time>2020-08-15T17:23:17Z</time>
      </trkpt>
      <trkpt lat="47.86007" lon="6.81588">
        <ele>671.6</ele>
        <time>2020-08-15T17:23:23Z</time>
      </trkpt>
      <trkpt lat="47.86009" lon="6.81594">
        <ele>672.5</ele>
        <time>2020-08-15T17:23:29Z</time>
      </trkpt>
      <trkpt lat="47.86005" lon="6.81597">
        <ele>673</ele>
        <time>2020-08-15T17:23:51Z</time>
      </trkpt>
      <trkpt lat="47.86009" lon="6.816">
        <ele>673.1</ele>
        <time>2020-08-15T17:24:17Z</time>
      </trkpt>
      <trkpt lat="47.86013" lon="6.81604">
        <ele>673.1</ele>
        <time>2020-08-15T17:24:46Z</time>
      </trkpt>
      <trkpt lat="47.86016" lon="6.8161">
        <ele>673.3</ele>
        <time>2020-08-15T17:24:52Z</time>
      </trkpt>
      <trkpt lat="47.8602" lon="6.81613">
        <ele>674.1</ele>
        <time>2020-08-15T17:25:10Z</time>
      </trkpt>
      <trkpt lat="47.86026" lon="6.81615">
        <ele>674.4</ele>
        <time>2020-08-15T17:25:14Z</time>
      </trkpt>
      <trkpt lat="47.8603" lon="6.81619">
        <ele>675</ele>
        <time>2020-08-15T17:25:33Z</time>
      </trkpt>
      <trkpt lat="47.86034" lon="6.8162">
        <ele>674.9</ele>
        <time>2020-08-15T17:25:38Z</time>
      </trkpt>
      <trkpt lat="47.86039" lon="6.81622">
        <ele>674.7</ele>
        <time>2020-08-15T17:25:43Z</time>
      </trkpt>
      <trkpt lat="47.86042" lon="6.81626">
        <ele>674.5</ele>
        <time>2020-08-15T17:25:48Z</time>
      </trkpt>
      <trkpt lat="47.86046" lon="6.81633">
        <ele>674.3</ele>
        <time>2020-08-15T17:25:54Z</time>
      </trkpt>
      <trkpt lat="47.86049" lon="6.81639">
        <ele>673.9</ele>
        <time>2020-08-15T17:26:00Z</time>
      </trkpt>
      <trkpt lat="47.86053" lon="6.81643">
        <ele>673.6</ele>
        <time>2020-08-15T17:26:06Z</time>
      </trkpt>
      <trkpt lat="47.86057" lon="6.81648">
        <ele>673.5</ele>
        <time>2020-08-15T17:26:13Z</time>
      </trkpt>
      <trkpt lat="47.86061" lon="6.81652">
        <ele>673.4</ele>
        <time>2020-08-15T17:26:18Z</time>
      </trkpt>
      <trkpt lat="47.86066" lon="6.81657">
        <ele>673.5</ele>
        <time>2020-08-15T17:26:23Z</time>
      </trkpt>
      <trkpt lat="47.8607" lon="6.8166">
        <ele>673.7</ele>
        <time>2020-08-15T17:26:28Z</time>
      </trkpt>
      <trkpt lat="47.86074" lon="6.81665">
        <ele>674</ele>
        <time>2020-08-15T17:26:34Z</time>
      </trkpt>
      <trkpt lat="47.86076" lon="6.81671">
        <ele>674.3</ele>
        <time>2020-08-15T17:26:39Z</time>
      </trkpt>
      <trkpt lat="47.86081" lon="6.81674">
        <ele>674.7</ele>
        <time>2020-08-15T17:26:44Z</time>
      </trkpt>
      <trkpt lat="47.86086" lon="6.81672">
        <ele>674.6</ele>
        <time>2020-08-15T17:26:51Z</time>
      </trkpt>
      <trkpt lat="47.86091" lon="6.81674">
        <ele>674.3</ele>
        <time>2020-08-15T17:26:57Z</time>
      </trkpt>
      <trkpt lat="47.86095" lon="6.81678">
        <ele>674.3</ele>
        <time>2020-08-15T17:27:01Z</time>
      </trkpt>
      <trkpt lat="47.86098" lon="6.81682">
        <ele>674.4</ele>
        <time>2020-08-15T17:27:05Z</time>
      </trkpt>
      <trkpt lat="47.86102" lon="6.81686">
        <ele>674.6</ele>
        <time>2020-08-15T17:27:09Z</time>
      </trkpt>
      <trkpt lat="47.86107" lon="6.81689">
        <ele>675.2</ele>
        <time>2020-08-15T17:27:15Z</time>
      </trkpt>
      <trkpt lat="47.86111" lon="6.81692">
        <ele>676.1</ele>
        <time>2020-08-15T17:27:22Z</time>
      </trkpt>
      <trkpt lat="47.86115" lon="6.81692">
        <ele>676.7</ele>
        <time>2020-08-15T17:27:28Z</time>
      </trkpt>
      <trkpt lat="47.86112" lon="6.81697">
        <ele>677.2</ele>
        <time>2020-08-15T17:28:15Z</time>
      </trkpt>
      <trkpt lat="47.86108" lon="6.81701">
        <ele>677.1</ele>
        <time>2020-08-15T17:28:18Z</time>
      </trkpt>
      <trkpt lat="47.86109" lon="6.81709">
        <ele>676.7</ele>
        <time>2020-08-15T17:28:46Z</time>
      </trkpt>
      <trkpt lat="47.86112" lon="6.81714">
        <ele>676.3</ele>
        <time>2020-08-15T17:28:51Z</time>
      </trkpt>
      <trkpt lat="47.86114" lon="6.81721">
        <ele>675.8</ele>
        <time>2020-08-15T17:28:56Z</time>
      </trkpt>
      <trkpt lat="47.86116" lon="6.81728">
        <ele>675.8</ele>
        <time>2020-08-15T17:29:38Z</time>
      </trkpt>
      <trkpt lat="47.86118" lon="6.81735">
        <ele>676</ele>
        <time>2020-08-15T17:29:45Z</time>
      </trkpt>
      <trkpt lat="47.86119" lon="6.81742">
        <ele>676.4</ele>
        <time>2020-08-15T17:29:54Z</time>
      </trkpt>
      <trkpt lat="47.8612" lon="6.81749">
        <ele>676.7</ele>
        <time>2020-08-15T17:30:09Z</time>
      </trkpt>
      <trkpt lat="47.86122" lon="6.81756">
        <ele>676.9</ele>
        <time>2020-08-15T17:30:16Z</time>
      </trkpt>
      <trkpt lat="47.86124" lon="6.81764">
        <ele>677</ele>
        <time>2020-08-15T17:30:21Z</time>
      </trkpt>
      <trkpt lat="47.86125" lon="6.81771">
        <ele>677.1</ele>
        <time>2020-08-15T17:30:25Z</time>
      </trkpt>
      <trkpt lat="47.86128" lon="6.81777">
        <ele>677.4</ele>
        <time>2020-08-15T17:30:30Z</time>
      </trkpt>
      <trkpt lat="47.86132" lon="6.81781">
        <ele>677.9</ele>
        <time>2020-08-15T17:30:35Z</time>
      </trkpt>
      <trkpt lat="47.86135" lon="6.81787">
        <ele>678.6</ele>
        <time>2020-08-15T17:30:44Z</time>
      </trkpt>
      <trkpt lat="47.86138" lon="6.81792">
        <ele>678.8</ele>
        <time>2020-08-15T17:31:55Z</time>
      </trkpt>
      <trkpt lat="47.86141" lon="6.81798">
        <ele>679.1</ele>
        <time>2020-08-15T17:32:00Z</time>
      </trkpt>
      <trkpt lat="47.86145" lon="6.81804">
        <ele>679.5</ele>
        <time>2020-08-15T17:32:06Z</time>
      </trkpt>
      <trkpt lat="47.86148" lon="6.81809">
        <ele>680</ele>
        <time>2020-08-15T17:32:12Z</time>
      </trkpt>
      <trkpt lat="47.86153" lon="6.81812">
        <ele>680.2</ele>
        <time>2020-08-15T17:32:17Z</time>
      </trkpt>
      <trkpt lat="47.86156" lon="6.81818">
        <ele>680.3</ele>
        <time>2020-08-15T17:32:22Z</time>
      </trkpt>
      <trkpt lat="47.86158" lon="6.81825">
        <ele>680.5</ele>
        <time>2020-08-15T17:32:27Z</time>
      </trkpt>
      <trkpt lat="47.86162" lon="6.81831">
        <ele>680.6</ele>
        <time>2020-08-15T17:32:31Z</time>
      </trkpt>
      <trkpt lat="47.86165" lon="6.81836">
        <ele>680.7</ele>
        <time>2020-08-15T17:32:35Z</time>
      </trkpt>
      <trkpt lat="47.86169" lon="6.81841">
        <ele>680.7</ele>
        <time>2020-08-15T17:32:39Z</time>
      </trkpt>
      <trkpt lat="47.86172" lon="6.81846">
        <ele>680.5</ele>
        <time>2020-08-15T17:32:43Z</time>
      </trkpt>
      <trkpt lat="47.86177" lon="6.81847">
        <ele>680.4</ele>
        <time>2020-08-15T17:32:47Z</time>
      </trkpt>
      <trkpt lat="47.86181" lon="6.8185">
        <ele>680.2</ele>
        <time>2020-08-15T17:32:51Z</time>
      </trkpt>
      <trkpt lat="47.86185" lon="6.81855">
        <ele>679.9</ele>
        <time>2020-08-15T17:32:56Z</time>
      </trkpt>
      <trkpt lat="47.8619" lon="6.8186">
        <ele>679.6</ele>
        <time>2020-08-15T17:33:01Z</time>
      </trkpt>
      <trkpt lat="47.86194" lon="6.81864">
        <ele>679.3</ele>
        <time>2020-08-15T17:33:05Z</time>
      </trkpt>
      <trkpt lat="47.86197" lon="6.8187">
        <ele>679</ele>
        <time>2020-08-15T17:33:09Z</time>
      </trkpt>
      <trkpt lat="47.86201" lon="6.81874">
        <ele>678.7</ele>
        <time>2020-08-15T17:33:13Z</time>
      </trkpt>
      <trkpt lat="47.86205" lon="6.81878">
        <ele>678.5</ele>
        <time>2020-08-15T17:33:17Z</time>
      </trkpt>
      <trkpt lat="47.86209" lon="6.81882">
        <ele>678.3</ele>
        <time>2020-08-15T17:33:21Z</time>
      </trkpt>
      <trkpt lat="47.86214" lon="6.81887">
        <ele>677.9</ele>
        <time>2020-08-15T17:33:26Z</time>
      </trkpt>
      <trkpt lat="47.86218" lon="6.8189">
        <ele>677.6</ele>
        <time>2020-08-15T17:33:31Z</time>
      </trkpt>
      <trkpt lat="47.86222" lon="6.81892">
        <ele>677.3</ele>
        <time>2020-08-15T17:33:36Z</time>
      </trkpt>
      <trkpt lat="47.86227" lon="6.81894">
        <ele>677.1</ele>
        <time>2020-08-15T17:33:40Z</time>
      </trkpt>
      <trkpt lat="47.86231" lon="6.81897">
        <ele>676.7</ele>
        <time>2020-08-15T17:33:51Z</time>
      </trkpt>
      <trkpt lat="47.86235" lon="6.81895">
        <ele>678.4</ele>
        <time>2020-08-15T17:34:47Z</time>
      </trkpt>
      <trkpt lat="47.8624" lon="6.81893">
        <ele>678.1</ele>
        <time>2020-08-15T17:34:52Z</time>
      </trkpt>
      <trkpt lat="47.86245" lon="6.8189">
        <ele>677.6</ele>
        <time>2020-08-15T17:34:56Z</time>
      </trkpt>
      <trkpt lat="47.86248" lon="6.81886">
        <ele>677.1</ele>
        <time>2020-08-15T17:35:00Z</time>
      </trkpt>
      <trkpt lat="47.8625" lon="6.8188">
        <ele>676.4</ele>
        <time>2020-08-15T17:35:04Z</time>
      </trkpt>
      <trkpt lat="47.86252" lon="6.81873">
        <ele>675.4</ele>
        <time>2020-08-15T17:35:09Z</time>
      </trkpt>
      <trkpt lat="47.86256" lon="6.81868">
        <ele>674.3</ele>
        <time>2020-08-15T17:35:14Z</time>
      </trkpt>
      <trkpt lat="47.86259" lon="6.81862">
        <ele>673.2</ele>
        <time>2020-08-15T17:35:21Z</time>
      </trkpt>
      <trkpt lat="47.86263" lon="6.8186">
        <ele>672.8</ele>
        <time>2020-08-15T17:35:27Z</time>
      </trkpt>
      <trkpt lat="47.86267" lon="6.81856">
        <ele>672.3</ele>
        <time>2020-08-15T17:35:39Z</time>
      </trkpt>
      <trkpt lat="47.8627" lon="6.8185">
        <ele>671.8</ele>
        <time>2020-08-15T17:35:44Z</time>
      </trkpt>
      <trkpt lat="47.86274" lon="6.81847">
        <ele>670.8</ele>
        <time>2020-08-15T17:35:51Z</time>
      </trkpt>
      <trkpt lat="47.86279" lon="6.81844">
        <ele>669.6</ele>
        <time>2020-08-15T17:35:59Z</time>
      </trkpt>
      <trkpt lat="47.86283" lon="6.81838">
        <ele>668.8</ele>
        <time>2020-08-15T17:36:05Z</time>
      </trkpt>
      <trkpt lat="47.86285" lon="6.81831">
        <ele>668.1</ele>
        <time>2020-08-15T17:36:10Z</time>
      </trkpt>
      <trkpt lat="47.86287" lon="6.81825">
        <ele>667.3</ele>
        <time>2020-08-15T17:36:16Z</time>
      </trkpt>
      <trkpt lat="47.86291" lon="6.8182">
        <ele>666.6</ele>
        <time>2020-08-15T17:36:22Z</time>
      </trkpt>
      <trkpt lat="47.86295" lon="6.81817">
        <ele>666.1</ele>
        <time>2020-08-15T17:36:26Z</time>
      </trkpt>
      <trkpt lat="47.86299" lon="6.81813">
        <ele>665.6</ele>
        <time>2020-08-15T17:36:30Z</time>
      </trkpt>
      <trkpt lat="47.86304" lon="6.81812">
        <ele>665.4</ele>
        <time>2020-08-15T17:36:33Z</time>
      </trkpt>
      <trkpt lat="47.86309" lon="6.81811">
        <ele>665.2</ele>
        <time>2020-08-15T17:36:36Z</time>
      </trkpt>
      <trkpt lat="47.86313" lon="6.81809">
        <ele>665.2</ele>
        <time>2020-08-15T17:36:39Z</time>
      </trkpt>
      <trkpt lat="47.86318" lon="6.81808">
        <ele>665.1</ele>
        <time>2020-08-15T17:36:45Z</time>
      </trkpt>
      <trkpt lat="47.8632" lon="6.81814">
        <ele>665</ele>
        <time>2020-08-15T17:36:50Z</time>
      </trkpt>
      <trkpt lat="47.86321" lon="6.81822">
        <ele>664.6</ele>
        <time>2020-08-15T17:36:56Z</time>
      </trkpt>
      <trkpt lat="47.86321" lon="6.81829">
        <ele>664.2</ele>
        <time>2020-08-15T17:37:01Z</time>
      </trkpt>
      <trkpt lat="47.8632" lon="6.81836">
        <ele>663.8</ele>
        <time>2020-08-15T17:37:06Z</time>
      </trkpt>
      <trkpt lat="47.86319" lon="6.81843">
        <ele>663.4</ele>
        <time>2020-08-15T17:37:11Z</time>
      </trkpt>
      <trkpt lat="47.86317" lon="6.81851">
        <ele>662.7</ele>
        <time>2020-08-15T17:37:16Z</time>
      </trkpt>
      <trkpt lat="47.86316" lon="6.81857">
        <ele>662.3</ele>
        <time>2020-08-15T17:37:19Z</time>
      </trkpt>
      <trkpt lat="47.86314" lon="6.81865">
        <ele>661.8</ele>
        <time>2020-08-15T17:37:23Z</time>
      </trkpt>
      <trkpt lat="47.86314" lon="6.81873">
        <ele>661.4</ele>
        <time>2020-08-15T17:37:28Z</time>
      </trkpt>
      <trkpt lat="47.86315" lon="6.81881">
        <ele>661</ele>
        <time>2020-08-15T17:37:32Z</time>
      </trkpt>
      <trkpt lat="47.86317" lon="6.81888">
        <ele>660.7</ele>
        <time>2020-08-15T17:37:36Z</time>
      </trkpt>
      <trkpt lat="47.86319" lon="6.81896">
        <ele>660.3</ele>
        <time>2020-08-15T17:37:41Z</time>
      </trkpt>
      <trkpt lat="47.8632" lon="6.81902">
        <ele>660</ele>
        <time>2020-08-15T17:37:45Z</time>
      </trkpt>
      <trkpt lat="47.86322" lon="6.81909">
        <ele>659.6</ele>
        <time>2020-08-15T17:37:49Z</time>
      </trkpt>
      <trkpt lat="47.86323" lon="6.81916">
        <ele>659.3</ele>
        <time>2020-08-15T17:37:54Z</time>
      </trkpt>
      <trkpt lat="47.86325" lon="6.81923">
        <ele>658.9</ele>
        <time>2020-08-15T17:38:00Z</time>
      </trkpt>
      <trkpt lat="47.86325" lon="6.8193">
        <ele>658.8</ele>
        <time>2020-08-15T17:38:04Z</time>
      </trkpt>
      <trkpt lat="47.86326" lon="6.81937">
        <ele>658.7</ele>
        <time>2020-08-15T17:38:09Z</time>
      </trkpt>
      <trkpt lat="47.86328" lon="6.81944">
        <ele>658.6</ele>
        <time>2020-08-15T17:38:14Z</time>
      </trkpt>
      <trkpt lat="47.86331" lon="6.81951">
        <ele>658.2</ele>
        <time>2020-08-15T17:38:19Z</time>
      </trkpt>
      <trkpt lat="47.86332" lon="6.81958">
        <ele>657.8</ele>
        <time>2020-08-15T17:38:24Z</time>
      </trkpt>
      <trkpt lat="47.86336" lon="6.81964">
        <ele>657.5</ele>
        <time>2020-08-15T17:38:29Z</time>
      </trkpt>
      <trkpt lat="47.8634" lon="6.81968">
        <ele>657.1</ele>
        <time>2020-08-15T17:38:33Z</time>
      </trkpt>
      <trkpt lat="47.86343" lon="6.81974">
        <ele>656.6</ele>
        <time>2020-08-15T17:38:37Z</time>
      </trkpt>
      <trkpt lat="47.86346" lon="6.81979">
        <ele>655.5</ele>
        <time>2020-08-15T17:38:46Z</time>
      </trkpt>
      <trkpt lat="47.8635" lon="6.81984">
        <ele>654.3</ele>
        <time>2020-08-15T17:38:52Z</time>
      </trkpt>
      <trkpt lat="47.86354" lon="6.8199">
        <ele>653.4</ele>
        <time>2020-08-15T17:38:57Z</time>
      </trkpt>
      <trkpt lat="47.86357" lon="6.81994">
        <ele>652.8</ele>
        <time>2020-08-15T17:39:01Z</time>
      </trkpt>
      <trkpt lat="47.86361" lon="6.82">
        <ele>652</ele>
        <time>2020-08-15T17:39:05Z</time>
      </trkpt>
      <trkpt lat="47.86363" lon="6.82006">
        <ele>651.1</ele>
        <time>2020-08-15T17:39:09Z</time>
      </trkpt>
      <trkpt lat="47.86366" lon="6.82011">
        <ele>649.9</ele>
        <time>2020-08-15T17:39:13Z</time>
      </trkpt>
      <trkpt lat="47.8637" lon="6.82016">
        <ele>648.4</ele>
        <time>2020-08-15T17:39:17Z</time>
      </trkpt>
      <trkpt lat="47.86374" lon="6.8202">
        <ele>646.4</ele>
        <time>2020-08-15T17:39:22Z</time>
      </trkpt>
      <trkpt lat="47.86378" lon="6.82026">
        <ele>644.7</ele>
        <time>2020-08-15T17:39:27Z</time>
      </trkpt>
      <trkpt lat="47.86382" lon="6.8203">
        <ele>643.2</ele>
        <time>2020-08-15T17:39:32Z</time>
      </trkpt>
      <trkpt lat="47.86386" lon="6.82035">
        <ele>641.6</ele>
        <time>2020-08-15T17:39:37Z</time>
      </trkpt>
      <trkpt lat="47.8639" lon="6.8204">
        <ele>640.7</ele>
        <time>2020-08-15T17:39:41Z</time>
      </trkpt>
      <trkpt lat="47.86393" lon="6.82045">
        <ele>640.1</ele>
        <time>2020-08-15T17:39:44Z</time>
      </trkpt>
      <trkpt lat="47.86396" lon="6.82052">
        <ele>639.2</ele>
        <time>2020-08-15T17:39:48Z</time>
      </trkpt>
      <trkpt lat="47.86399" lon="6.82059">
        <ele>638.4</ele>
        <time>2020-08-15T17:39:52Z</time>
      </trkpt>
      <trkpt lat="47.86401" lon="6.82066">
        <ele>637.7</ele>
        <time>2020-08-15T17:39:56Z</time>
      </trkpt>
      <trkpt lat="47.86403" lon="6.82073">
        <ele>637</ele>
        <time>2020-08-15T17:40:01Z</time>
      </trkpt>
      <trkpt lat="47.86406" lon="6.82079">
        <ele>635.7</ele>
        <time>2020-08-15T17:40:15Z</time>
      </trkpt>
      <trkpt lat="47.86408" lon="6.82085">
        <ele>635.6</ele>
        <time>2020-08-15T17:40:19Z</time>
      </trkpt>
      <trkpt lat="47.8641" lon="6.82092">
        <ele>635.8</ele>
        <time>2020-08-15T17:40:23Z</time>
      </trkpt>
      <trkpt lat="47.86412" lon="6.82099">
        <ele>636</ele>
        <time>2020-08-15T17:40:28Z</time>
      </trkpt>
      <trkpt lat="47.86414" lon="6.82107">
        <ele>636</ele>
        <time>2020-08-15T17:40:33Z</time>
      </trkpt>
      <trkpt lat="47.86418" lon="6.82113">
        <ele>636.1</ele>
        <time>2020-08-15T17:40:37Z</time>
      </trkpt>
      <trkpt lat="47.86421" lon="6.82119">
        <ele>636.2</ele>
        <time>2020-08-15T17:40:42Z</time>
      </trkpt>
      <trkpt lat="47.86424" lon="6.82125">
        <ele>636.4</ele>
        <time>2020-08-15T17:40:46Z</time>
      </trkpt>
      <trkpt lat="47.86427" lon="6.82131">
        <ele>636.5</ele>
        <time>2020-08-15T17:40:51Z</time>
      </trkpt>
      <trkpt lat="47.8643" lon="6.82138">
        <ele>636.4</ele>
        <time>2020-08-15T17:40:55Z</time>
      </trkpt>
      <trkpt lat="47.86433" lon="6.82144">
        <ele>636.3</ele>
        <time>2020-08-15T17:40:59Z</time>
      </trkpt>
      <trkpt lat="47.86437" lon="6.82151">
        <ele>636.1</ele>
        <time>2020-08-15T17:41:03Z</time>
      </trkpt>
      <trkpt lat="47.86439" lon="6.82157">
        <ele>636</ele>
        <time>2020-08-15T17:41:06Z</time>
      </trkpt>
      <trkpt lat="47.86441" lon="6.82163">
        <ele>636</ele>
        <time>2020-08-15T17:41:09Z</time>
      </trkpt>
      <trkpt lat="47.86444" lon="6.82169">
        <ele>636.1</ele>
        <time>2020-08-15T17:41:12Z</time>
      </trkpt>
      <trkpt lat="47.86447" lon="6.82176">
        <ele>636.3</ele>
        <time>2020-08-15T17:41:16Z</time>
      </trkpt>
      <trkpt lat="47.86449" lon="6.82183">
        <ele>636.3</ele>
        <time>2020-08-15T17:41:20Z</time>
      </trkpt>
      <trkpt lat="47.86452" lon="6.82189">
        <ele>635.9</ele>
        <time>2020-08-15T17:41:25Z</time>
      </trkpt>
      <trkpt lat="47.86453" lon="6.82196">
        <ele>635.4</ele>
        <time>2020-08-15T17:41:30Z</time>
      </trkpt>
      <trkpt lat="47.86456" lon="6.82202">
        <ele>634.8</ele>
        <time>2020-08-15T17:41:35Z</time>
      </trkpt>
      <trkpt lat="47.86459" lon="6.82209">
        <ele>634.1</ele>
        <time>2020-08-15T17:41:39Z</time>
      </trkpt>
      <trkpt lat="47.86461" lon="6.82216">
        <ele>633.3</ele>
        <time>2020-08-15T17:41:43Z</time>
      </trkpt>
      <trkpt lat="47.86464" lon="6.82221">
        <ele>632.3</ele>
        <time>2020-08-15T17:41:47Z</time>
      </trkpt>
      <trkpt lat="47.86467" lon="6.82227">
        <ele>631.1</ele>
        <time>2020-08-15T17:41:52Z</time>
      </trkpt>
      <trkpt lat="47.86471" lon="6.82232">
        <ele>630.1</ele>
        <time>2020-08-15T17:41:57Z</time>
      </trkpt>
      <trkpt lat="47.86475" lon="6.82238">
        <ele>629.3</ele>
        <time>2020-08-15T17:42:01Z</time>
      </trkpt>
      <trkpt lat="47.86479" lon="6.82243">
        <ele>628.5</ele>
        <time>2020-08-15T17:42:05Z</time>
      </trkpt>
      <trkpt lat="47.86482" lon="6.82248">
        <ele>627.9</ele>
        <time>2020-08-15T17:42:09Z</time>
      </trkpt>
      <trkpt lat="47.86486" lon="6.82254">
        <ele>627.3</ele>
        <time>2020-08-15T17:42:13Z</time>
      </trkpt>
      <trkpt lat="47.86489" lon="6.8226">
        <ele>626.6</ele>
        <time>2020-08-15T17:42:17Z</time>
      </trkpt>
      <trkpt lat="47.86491" lon="6.82267">
        <ele>626</ele>
        <time>2020-08-15T17:42:21Z</time>
      </trkpt>
      <trkpt lat="47.86493" lon="6.82275">
        <ele>625.4</ele>
        <time>2020-08-15T17:42:25Z</time>
      </trkpt>
      <trkpt lat="47.86494" lon="6.82282">
        <ele>624.4</ele>
        <time>2020-08-15T17:42:31Z</time>
      </trkpt>
      <trkpt lat="47.86489" lon="6.82283">
        <ele>623.4</ele>
        <time>2020-08-15T17:42:38Z</time>
      </trkpt>
      <trkpt lat="47.86485" lon="6.8228">
        <ele>622.8</ele>
        <time>2020-08-15T17:42:43Z</time>
      </trkpt>
      <trkpt lat="47.86481" lon="6.82275">
        <ele>622.3</ele>
        <time>2020-08-15T17:42:47Z</time>
      </trkpt>
      <trkpt lat="47.86477" lon="6.82269">
        <ele>621.9</ele>
        <time>2020-08-15T17:42:51Z</time>
      </trkpt>
      <trkpt lat="47.86473" lon="6.82263">
        <ele>621.7</ele>
        <time>2020-08-15T17:42:55Z</time>
      </trkpt>
      <trkpt lat="47.86469" lon="6.82259">
        <ele>621.8</ele>
        <time>2020-08-15T17:42:59Z</time>
      </trkpt>
      <trkpt lat="47.86465" lon="6.82256">
        <ele>622.1</ele>
        <time>2020-08-15T17:43:03Z</time>
      </trkpt>
      <trkpt lat="47.8646" lon="6.82255">
        <ele>622.9</ele>
        <time>2020-08-15T17:43:09Z</time>
      </trkpt>
      <trkpt lat="47.86456" lon="6.82251">
        <ele>624.9</ele>
        <time>2020-08-15T17:43:52Z</time>
      </trkpt>
      <trkpt lat="47.86452" lon="6.82247">
        <ele>624.2</ele>
        <time>2020-08-15T17:43:57Z</time>
      </trkpt>
      <trkpt lat="47.86448" lon="6.82243">
        <ele>623.6</ele>
        <time>2020-08-15T17:44:01Z</time>
      </trkpt>
      <trkpt lat="47.86444" lon="6.82239">
        <ele>622.8</ele>
        <time>2020-08-15T17:44:06Z</time>
      </trkpt>
      <trkpt lat="47.86439" lon="6.82235">
        <ele>621.8</ele>
        <time>2020-08-15T17:44:12Z</time>
      </trkpt>
      <trkpt lat="47.86435" lon="6.82232">
        <ele>621.1</ele>
        <time>2020-08-15T17:44:17Z</time>
      </trkpt>
      <trkpt lat="47.8643" lon="6.82229">
        <ele>620.4</ele>
        <time>2020-08-15T17:44:22Z</time>
      </trkpt>
      <trkpt lat="47.86427" lon="6.82224">
        <ele>619.8</ele>
        <time>2020-08-15T17:44:26Z</time>
      </trkpt>
      <trkpt lat="47.86422" lon="6.82219">
        <ele>619.1</ele>
        <time>2020-08-15T17:44:31Z</time>
      </trkpt>
      <trkpt lat="47.86419" lon="6.82215">
        <ele>618.5</ele>
        <time>2020-08-15T17:44:35Z</time>
      </trkpt>
      <trkpt lat="47.86413" lon="6.82212">
        <ele>617.8</ele>
        <time>2020-08-15T17:44:40Z</time>
      </trkpt>
      <trkpt lat="47.8641" lon="6.82208">
        <ele>617.3</ele>
        <time>2020-08-15T17:44:45Z</time>
      </trkpt>
      <trkpt lat="47.86407" lon="6.82203">
        <ele>617.2</ele>
        <time>2020-08-15T17:44:49Z</time>
      </trkpt>
      <trkpt lat="47.86403" lon="6.82199">
        <ele>617</ele>
        <time>2020-08-15T17:44:53Z</time>
      </trkpt>
      <trkpt lat="47.86399" lon="6.82192">
        <ele>616.9</ele>
        <time>2020-08-15T17:44:57Z</time>
      </trkpt>
      <trkpt lat="47.86396" lon="6.82187">
        <ele>616.8</ele>
        <time>2020-08-15T17:45:01Z</time>
      </trkpt>
      <trkpt lat="47.86393" lon="6.82181">
        <ele>616.6</ele>
        <time>2020-08-15T17:45:05Z</time>
      </trkpt>
      <trkpt lat="47.8639" lon="6.82177">
        <ele>616.4</ele>
        <time>2020-08-15T17:45:09Z</time>
      </trkpt>
      <trkpt lat="47.86385" lon="6.82172">
        <ele>616.3</ele>
        <time>2020-08-15T17:45:14Z</time>
      </trkpt>
      <trkpt lat="47.86382" lon="6.82167">
        <ele>616.3</ele>
        <time>2020-08-15T17:45:18Z</time>
      </trkpt>
      <trkpt lat="47.86378" lon="6.82162">
        <ele>616.1</ele>
        <time>2020-08-15T17:45:23Z</time>
      </trkpt>
      <trkpt lat="47.86374" lon="6.82157">
        <ele>616</ele>
        <time>2020-08-15T17:45:27Z</time>
      </trkpt>
      <trkpt lat="47.8637" lon="6.82151">
        <ele>615.9</ele>
        <time>2020-08-15T17:45:31Z</time>
      </trkpt>
      <trkpt lat="47.86367" lon="6.82145">
        <ele>615.8</ele>
        <time>2020-08-15T17:45:35Z</time>
      </trkpt>
      <trkpt lat="47.86363" lon="6.82141">
        <ele>615.8</ele>
        <time>2020-08-15T17:45:39Z</time>
      </trkpt>
      <trkpt lat="47.86358" lon="6.82136">
        <ele>615.9</ele>
        <time>2020-08-15T17:45:43Z</time>
      </trkpt>
      <trkpt lat="47.86353" lon="6.82131">
        <ele>616.2</ele>
        <time>2020-08-15T17:45:47Z</time>
      </trkpt>
      <trkpt lat="47.86349" lon="6.82127">
        <ele>616.7</ele>
        <time>2020-08-15T17:45:51Z</time>
      </trkpt>
      <trkpt lat="47.86344" lon="6.82122">
        <ele>617.3</ele>
        <time>2020-08-15T17:45:55Z</time>
      </trkpt>
      <trkpt lat="47.8634" lon="6.82117">
        <ele>617.8</ele>
        <time>2020-08-15T17:45:59Z</time>
      </trkpt>
      <trkpt lat="47.86336" lon="6.82113">
        <ele>618.4</ele>
        <time>2020-08-15T17:46:03Z</time>
      </trkpt>
      <trkpt lat="47.86331" lon="6.82109">
        <ele>619</ele>
        <time>2020-08-15T17:46:07Z</time>
      </trkpt>
      <trkpt lat="47.86327" lon="6.82105">
        <ele>619.5</ele>
        <time>2020-08-15T17:46:11Z</time>
      </trkpt>
      <trkpt lat="47.86324" lon="6.821">
        <ele>620</ele>
        <time>2020-08-15T17:46:15Z</time>
      </trkpt>
      <trkpt lat="47.8632" lon="6.82096">
        <ele>620.5</ele>
        <time>2020-08-15T17:46:19Z</time>
      </trkpt>
      <trkpt lat="47.86315" lon="6.82093">
        <ele>620.9</ele>
        <time>2020-08-15T17:46:23Z</time>
      </trkpt>
      <trkpt lat="47.86309" lon="6.8209">
        <ele>621.1</ele>
        <time>2020-08-15T17:46:27Z</time>
      </trkpt>
      <trkpt lat="47.86303" lon="6.82089">
        <ele>621.2</ele>
        <time>2020-08-15T17:46:31Z</time>
      </trkpt>
      <trkpt lat="47.86298" lon="6.8209">
        <ele>621.2</ele>
        <time>2020-08-15T17:46:35Z</time>
      </trkpt>
      <trkpt lat="47.86293" lon="6.82092">
        <ele>621.3</ele>
        <time>2020-08-15T17:46:39Z</time>
      </trkpt>
      <trkpt lat="47.86288" lon="6.82094">
        <ele>621.4</ele>
        <time>2020-08-15T17:46:43Z</time>
      </trkpt>
      <trkpt lat="47.86284" lon="6.82098">
        <ele>621.4</ele>
        <time>2020-08-15T17:46:46Z</time>
      </trkpt>
      <trkpt lat="47.8628" lon="6.82103">
        <ele>621.5</ele>
        <time>2020-08-15T17:46:49Z</time>
      </trkpt>
      <trkpt lat="47.86275" lon="6.82106">
        <ele>621.3</ele>
        <time>2020-08-15T17:46:53Z</time>
      </trkpt>
      <trkpt lat="47.8627" lon="6.82109">
        <ele>621.1</ele>
        <time>2020-08-15T17:46:57Z</time>
      </trkpt>
      <trkpt lat="47.86265" lon="6.82112">
        <ele>620.4</ele>
        <time>2020-08-15T17:47:02Z</time>
      </trkpt>
      <trkpt lat="47.86261" lon="6.82115">
        <ele>619.5</ele>
        <time>2020-08-15T17:47:07Z</time>
      </trkpt>
      <trkpt lat="47.86257" lon="6.82119">
        <ele>618.7</ele>
        <time>2020-08-15T17:47:11Z</time>
      </trkpt>
      <trkpt lat="47.86253" lon="6.82124">
        <ele>618</ele>
        <time>2020-08-15T17:47:15Z</time>
      </trkpt>
      <trkpt lat="47.86249" lon="6.82128">
        <ele>617.5</ele>
        <time>2020-08-15T17:47:19Z</time>
      </trkpt>
      <trkpt lat="47.86245" lon="6.82132">
        <ele>616.8</ele>
        <time>2020-08-15T17:47:24Z</time>
      </trkpt>
      <trkpt lat="47.86242" lon="6.82137">
        <ele>615.8</ele>
        <time>2020-08-15T17:47:30Z</time>
      </trkpt>
      <trkpt lat="47.86237" lon="6.8214">
        <ele>613.1</ele>
        <time>2020-08-15T17:47:50Z</time>
      </trkpt>
      <trkpt lat="47.86231" lon="6.82141">
        <ele>612.5</ele>
        <time>2020-08-15T17:47:55Z</time>
      </trkpt>
      <trkpt lat="47.86226" lon="6.8214">
        <ele>611.8</ele>
        <time>2020-08-15T17:47:59Z</time>
      </trkpt>
      <trkpt lat="47.86221" lon="6.82141">
        <ele>610.8</ele>
        <time>2020-08-15T17:48:05Z</time>
      </trkpt>
      <trkpt lat="47.86216" lon="6.82141">
        <ele>609.7</ele>
        <time>2020-08-15T17:48:11Z</time>
      </trkpt>
      <trkpt lat="47.86211" lon="6.82141">
        <ele>609.1</ele>
        <time>2020-08-15T17:48:16Z</time>
      </trkpt>
      <trkpt lat="47.86205" lon="6.82141">
        <ele>608.6</ele>
        <time>2020-08-15T17:48:21Z</time>
      </trkpt>
      <trkpt lat="47.862" lon="6.82139">
        <ele>608.1</ele>
        <time>2020-08-15T17:48:25Z</time>
      </trkpt>
      <trkpt lat="47.86195" lon="6.82137">
        <ele>607.5</ele>
        <time>2020-08-15T17:48:30Z</time>
      </trkpt>
      <trkpt lat="47.8619" lon="6.82137">
        <ele>607.1</ele>
        <time>2020-08-15T17:48:35Z</time>
      </trkpt>
      <trkpt lat="47.86185" lon="6.82134">
        <ele>606.7</ele>
        <time>2020-08-15T17:48:41Z</time>
      </trkpt>
      <trkpt lat="47.8618" lon="6.82131">
        <ele>606.4</ele>
        <time>2020-08-15T17:48:46Z</time>
      </trkpt>
      <trkpt lat="47.86175" lon="6.82131">
        <ele>605.9</ele>
        <time>2020-08-15T17:48:51Z</time>
      </trkpt>
      <trkpt lat="47.86171" lon="6.8213">
        <ele>605.5</ele>
        <time>2020-08-15T17:48:55Z</time>
      </trkpt>
      <trkpt lat="47.86166" lon="6.82129">
        <ele>605.1</ele>
        <time>2020-08-15T17:48:59Z</time>
      </trkpt>
      <trkpt lat="47.86161" lon="6.82126">
        <ele>604.6</ele>
        <time>2020-08-15T17:49:03Z</time>
      </trkpt>
      <trkpt lat="47.86157" lon="6.82123">
        <ele>604.2</ele>
        <time>2020-08-15T17:49:08Z</time>
      </trkpt>
      <trkpt lat="47.86153" lon="6.82119">
        <ele>603.8</ele>
        <time>2020-08-15T17:49:14Z</time>
      </trkpt>
      <trkpt lat="47.86148" lon="6.82122">
        <ele>602.5</ele>
        <time>2020-08-15T17:49:30Z</time>
      </trkpt>
      <trkpt lat="47.86143" lon="6.82121">
        <ele>602</ele>
        <time>2020-08-15T17:49:38Z</time>
      </trkpt>
      <trkpt lat="47.86139" lon="6.82118">
        <ele>601.6</ele>
        <time>2020-08-15T17:49:44Z</time>
      </trkpt>
      <trkpt lat="47.86135" lon="6.82114">
        <ele>601.2</ele>
        <time>2020-08-15T17:49:51Z</time>
      </trkpt>
      <trkpt lat="47.8613" lon="6.82112">
        <ele>601</ele>
        <time>2020-08-15T17:49:56Z</time>
      </trkpt>
      <trkpt lat="47.86126" lon="6.8211">
        <ele>600.9</ele>
        <time>2020-08-15T17:50:01Z</time>
      </trkpt>
      <trkpt lat="47.86122" lon="6.82106">
        <ele>600.8</ele>
        <time>2020-08-15T17:50:05Z</time>
      </trkpt>
      <trkpt lat="47.86119" lon="6.82101">
        <ele>600.5</ele>
        <time>2020-08-15T17:50:10Z</time>
      </trkpt>
      <trkpt lat="47.86115" lon="6.82096">
        <ele>600.2</ele>
        <time>2020-08-15T17:50:16Z</time>
      </trkpt>
      <trkpt lat="47.86111" lon="6.82092">
        <ele>600</ele>
        <time>2020-08-15T17:50:21Z</time>
      </trkpt>
      <trkpt lat="47.86108" lon="6.82088">
        <ele>599.7</ele>
        <time>2020-08-15T17:50:25Z</time>
      </trkpt>
      <trkpt lat="47.86104" lon="6.82083">
        <ele>599.5</ele>
        <time>2020-08-15T17:50:29Z</time>
      </trkpt>
      <trkpt lat="47.86099" lon="6.82079">
        <ele>599.5</ele>
        <time>2020-08-15T17:50:33Z</time>
      </trkpt>
      <trkpt lat="47.86095" lon="6.82076">
        <ele>599.4</ele>
        <time>2020-08-15T17:50:37Z</time>
      </trkpt>
      <trkpt lat="47.8609" lon="6.82074">
        <ele>599.1</ele>
        <time>2020-08-15T17:50:42Z</time>
      </trkpt>
      <trkpt lat="47.86087" lon="6.82068">
        <ele>598.5</ele>
        <time>2020-08-15T17:51:09Z</time>
      </trkpt>
      <trkpt lat="47.86083" lon="6.82065">
        <ele>598.4</ele>
        <time>2020-08-15T17:51:13Z</time>
      </trkpt>
      <trkpt lat="47.86078" lon="6.82063">
        <ele>598.4</ele>
        <time>2020-08-15T17:51:17Z</time>
      </trkpt>
      <trkpt lat="47.86073" lon="6.82063">
        <ele>598.2</ele>
        <time>2020-08-15T17:51:22Z</time>
      </trkpt>
      <trkpt lat="47.86068" lon="6.82059">
        <ele>597.6</ele>
        <time>2020-08-15T17:52:01Z</time>
      </trkpt>
      <trkpt lat="47.86063" lon="6.82057">
        <ele>597.4</ele>
        <time>2020-08-15T17:52:07Z</time>
      </trkpt>
      <trkpt lat="47.86058" lon="6.82055">
        <ele>597.2</ele>
        <time>2020-08-15T17:52:12Z</time>
      </trkpt>
      <trkpt lat="47.86054" lon="6.82053">
        <ele>596.7</ele>
        <time>2020-08-15T17:52:17Z</time>
      </trkpt>
      <trkpt lat="47.8605" lon="6.8205">
        <ele>596.1</ele>
        <time>2020-08-15T17:52:22Z</time>
      </trkpt>
      <trkpt lat="47.86046" lon="6.82048">
        <ele>594</ele>
        <time>2020-08-15T17:52:38Z</time>
      </trkpt>
      <trkpt lat="47.86042" lon="6.82044">
        <ele>592</ele>
        <time>2020-08-15T17:52:46Z</time>
      </trkpt>
      <trkpt lat="47.86038" lon="6.8204">
        <ele>590.3</ele>
        <time>2020-08-15T17:52:52Z</time>
      </trkpt>
      <trkpt lat="47.86033" lon="6.82038">
        <ele>588.8</ele>
        <time>2020-08-15T17:52:58Z</time>
      </trkpt>
      <trkpt lat="47.86029" lon="6.82034">
        <ele>587.8</ele>
        <time>2020-08-15T17:53:02Z</time>
      </trkpt>
      <trkpt lat="47.86025" lon="6.82031">
        <ele>586.7</ele>
        <time>2020-08-15T17:53:06Z</time>
      </trkpt>
      <trkpt lat="47.86021" lon="6.82026">
        <ele>584.6</ele>
        <time>2020-08-15T17:53:13Z</time>
      </trkpt>
      <trkpt lat="47.86017" lon="6.82022">
        <ele>583</ele>
        <time>2020-08-15T17:53:19Z</time>
      </trkpt>
      <trkpt lat="47.86013" lon="6.82018">
        <ele>581.9</ele>
        <time>2020-08-15T17:53:25Z</time>
      </trkpt>
      <trkpt lat="47.86008" lon="6.82015">
        <ele>581.1</ele>
        <time>2020-08-15T17:53:30Z</time>
      </trkpt>
      <trkpt lat="47.86003" lon="6.82014">
        <ele>580.2</ele>
        <time>2020-08-15T17:53:36Z</time>
      </trkpt>
      <trkpt lat="47.85998" lon="6.82012">
        <ele>579.2</ele>
        <time>2020-08-15T17:53:42Z</time>
      </trkpt>
      <trkpt lat="47.85993" lon="6.82009">
        <ele>578.5</ele>
        <time>2020-08-15T17:53:48Z</time>
      </trkpt>
      <trkpt lat="47.85989" lon="6.82005">
        <ele>578</ele>
        <time>2020-08-15T17:53:53Z</time>
      </trkpt>
      <trkpt lat="47.85984" lon="6.82002">
        <ele>577.6</ele>
        <time>2020-08-15T17:53:58Z</time>
      </trkpt>
      <trkpt lat="47.8598" lon="6.81998">
        <ele>577.5</ele>
        <time>2020-08-15T17:54:03Z</time>
      </trkpt>
      <trkpt lat="47.85976" lon="6.81995">
        <ele>577.5</ele>
        <time>2020-08-15T17:54:07Z</time>
      </trkpt>
      <trkpt lat="47.85971" lon="6.81993">
        <ele>577.3</ele>
        <time>2020-08-15T17:54:11Z</time>
      </trkpt>
      <trkpt lat="47.85966" lon="6.81991">
        <ele>577</ele>
        <time>2020-08-15T17:54:17Z</time>
      </trkpt>
      <trkpt lat="47.85962" lon="6.81994">
        <ele>576.5</ele>
        <time>2020-08-15T17:54:22Z</time>
      </trkpt>
      <trkpt lat="47.85961" lon="6.82">
        <ele>575.5</ele>
        <time>2020-08-15T17:54:27Z</time>
      </trkpt>
      <trkpt lat="47.85963" lon="6.82008">
        <ele>574</ele>
        <time>2020-08-15T17:54:32Z</time>
      </trkpt>
      <trkpt lat="47.85966" lon="6.82014">
        <ele>572.8</ele>
        <time>2020-08-15T17:54:36Z</time>
      </trkpt>
      <trkpt lat="47.8597" lon="6.82019">
        <ele>568.4</ele>
        <time>2020-08-15T17:57:05Z</time>
      </trkpt>
      <trkpt lat="47.85973" lon="6.82025">
        <ele>569.2</ele>
        <time>2020-08-15T17:57:10Z</time>
      </trkpt>
      <trkpt lat="47.85976" lon="6.8203">
        <ele>569.8</ele>
        <time>2020-08-15T17:57:14Z</time>
      </trkpt>
      <trkpt lat="47.85979" lon="6.82037">
        <ele>570.2</ele>
        <time>2020-08-15T17:57:18Z</time>
      </trkpt>
      <trkpt lat="47.85981" lon="6.82044">
        <ele>570.6</ele>
        <time>2020-08-15T17:57:22Z</time>
      </trkpt>
      <trkpt lat="47.85984" lon="6.8205">
        <ele>570.8</ele>
        <time>2020-08-15T17:57:26Z</time>
      </trkpt>
      <trkpt lat="47.85988" lon="6.82055">
        <ele>570.6</ele>
        <time>2020-08-15T17:57:32Z</time>
      </trkpt>
      <trkpt lat="47.85992" lon="6.82058">
        <ele>569.9</ele>
        <time>2020-08-15T17:57:38Z</time>
      </trkpt>
      <trkpt lat="47.85996" lon="6.82062">
        <ele>569.5</ele>
        <time>2020-08-15T17:57:42Z</time>
      </trkpt>
      <trkpt lat="47.86" lon="6.82068">
        <ele>569.2</ele>
        <time>2020-08-15T17:57:46Z</time>
      </trkpt>
      <trkpt lat="47.86002" lon="6.82075">
        <ele>568.7</ele>
        <time>2020-08-15T17:57:50Z</time>
      </trkpt>
      <trkpt lat="47.86005" lon="6.82082">
        <ele>568.4</ele>
        <time>2020-08-15T17:57:55Z</time>
      </trkpt>
      <trkpt lat="47.86007" lon="6.82087">
        <ele>568.2</ele>
        <time>2020-08-15T17:58:00Z</time>
      </trkpt>
      <trkpt lat="47.8601" lon="6.82094">
        <ele>567.9</ele>
        <time>2020-08-15T17:58:04Z</time>
      </trkpt>
      <trkpt lat="47.86012" lon="6.82101">
        <ele>567.6</ele>
        <time>2020-08-15T17:58:09Z</time>
      </trkpt>
      <trkpt lat="47.86014" lon="6.82108">
        <ele>567.3</ele>
        <time>2020-08-15T17:58:14Z</time>
      </trkpt>
      <trkpt lat="47.86016" lon="6.82115">
        <ele>567</ele>
        <time>2020-08-15T17:58:18Z</time>
      </trkpt>
      <trkpt lat="47.86017" lon="6.82122">
        <ele>566.6</ele>
        <time>2020-08-15T17:58:22Z</time>
      </trkpt>
      <trkpt lat="47.86018" lon="6.82129">
        <ele>566.4</ele>
        <time>2020-08-15T17:58:27Z</time>
      </trkpt>
      <trkpt lat="47.86018" lon="6.82136">
        <ele>565.9</ele>
        <time>2020-08-15T17:58:32Z</time>
      </trkpt>
      <trkpt lat="47.86018" lon="6.82145">
        <ele>565.5</ele>
        <time>2020-08-15T17:58:37Z</time>
      </trkpt>
      <trkpt lat="47.86018" lon="6.82152">
        <ele>565.4</ele>
        <time>2020-08-15T17:58:42Z</time>
      </trkpt>
      <trkpt lat="47.86017" lon="6.82159">
        <ele>565.6</ele>
        <time>2020-08-15T17:58:46Z</time>
      </trkpt>
      <trkpt lat="47.86016" lon="6.82166">
        <ele>565.7</ele>
        <time>2020-08-15T17:58:50Z</time>
      </trkpt>
      <trkpt lat="47.86015" lon="6.82172">
        <ele>566.1</ele>
        <time>2020-08-15T17:58:54Z</time>
      </trkpt>
      <trkpt lat="47.86014" lon="6.8218">
        <ele>566.5</ele>
        <time>2020-08-15T17:58:58Z</time>
      </trkpt>
      <trkpt lat="47.86012" lon="6.82187">
        <ele>566.8</ele>
        <time>2020-08-15T17:59:03Z</time>
      </trkpt>
      <trkpt lat="47.8601" lon="6.82194">
        <ele>566.7</ele>
        <time>2020-08-15T17:59:07Z</time>
      </trkpt>
      <trkpt lat="47.86007" lon="6.822">
        <ele>566.7</ele>
        <time>2020-08-15T17:59:12Z</time>
      </trkpt>
      <trkpt lat="47.86004" lon="6.82206">
        <ele>566.6</ele>
        <time>2020-08-15T17:59:17Z</time>
      </trkpt>
      <trkpt lat="47.86" lon="6.82212">
        <ele>566.5</ele>
        <time>2020-08-15T17:59:22Z</time>
      </trkpt>
      <trkpt lat="47.85997" lon="6.82216">
        <ele>566.1</ele>
        <time>2020-08-15T17:59:27Z</time>
      </trkpt>
      <trkpt lat="47.85994" lon="6.82222">
        <ele>565.8</ele>
        <time>2020-08-15T17:59:32Z</time>
      </trkpt>
      <trkpt lat="47.85992" lon="6.8223">
        <ele>565.4</ele>
        <time>2020-08-15T17:59:37Z</time>
      </trkpt>
      <trkpt lat="47.8599" lon="6.82237">
        <ele>564.7</ele>
        <time>2020-08-15T17:59:42Z</time>
      </trkpt>
      <trkpt lat="47.85988" lon="6.82245">
        <ele>563.8</ele>
        <time>2020-08-15T17:59:47Z</time>
      </trkpt>
      <trkpt lat="47.85989" lon="6.82253">
        <ele>563.1</ele>
        <time>2020-08-15T17:59:51Z</time>
      </trkpt>
      <trkpt lat="47.85991" lon="6.82259">
        <ele>560.8</ele>
        <time>2020-08-15T18:00:08Z</time>
      </trkpt>
      <trkpt lat="47.85993" lon="6.82266">
        <ele>559.8</ele>
        <time>2020-08-15T18:00:14Z</time>
      </trkpt>
      <trkpt lat="47.85995" lon="6.82273">
        <ele>557.2</ele>
        <time>2020-08-15T18:00:30Z</time>
      </trkpt>
      <trkpt lat="47.85995" lon="6.82281">
        <ele>556.2</ele>
        <time>2020-08-15T18:00:36Z</time>
      </trkpt>
      <trkpt lat="47.85992" lon="6.82287">
        <ele>555.4</ele>
        <time>2020-08-15T18:00:41Z</time>
      </trkpt>
      <trkpt lat="47.85989" lon="6.82293">
        <ele>554.8</ele>
        <time>2020-08-15T18:00:45Z</time>
      </trkpt>
      <trkpt lat="47.85986" lon="6.82299">
        <ele>554.5</ele>
        <time>2020-08-15T18:00:49Z</time>
      </trkpt>
      <trkpt lat="47.85982" lon="6.82304">
        <ele>554.2</ele>
        <time>2020-08-15T18:00:54Z</time>
      </trkpt>
      <trkpt lat="47.85979" lon="6.82309">
        <ele>553.9</ele>
        <time>2020-08-15T18:01:01Z</time>
      </trkpt>
      <trkpt lat="47.85979" lon="6.82317">
        <ele>553.4</ele>
        <time>2020-08-15T18:01:08Z</time>
      </trkpt>
      <trkpt lat="47.85978" lon="6.82324">
        <ele>552.6</ele>
        <time>2020-08-15T18:01:20Z</time>
      </trkpt>
      <trkpt lat="47.85975" lon="6.82332">
        <ele>551.8</ele>
        <time>2020-08-15T18:01:26Z</time>
      </trkpt>
      <trkpt lat="47.85971" lon="6.82336">
        <ele>551.3</ele>
        <time>2020-08-15T18:01:30Z</time>
      </trkpt>
      <trkpt lat="47.85967" lon="6.82341">
        <ele>550.7</ele>
        <time>2020-08-15T18:01:34Z</time>
      </trkpt>
      <trkpt lat="47.85963" lon="6.82347">
        <ele>550.1</ele>
        <time>2020-08-15T18:01:37Z</time>
      </trkpt>
      <trkpt lat="47.85959" lon="6.82352">
        <ele>549.5</ele>
        <time>2020-08-15T18:01:40Z</time>
      </trkpt>
      <trkpt lat="47.85955" lon="6.82358">
        <ele>549</ele>
        <time>2020-08-15T18:01:43Z</time>
      </trkpt>
      <trkpt lat="47.85951" lon="6.82363">
        <ele>548.3</ele>
        <time>2020-08-15T18:01:48Z</time>
      </trkpt>
      <trkpt lat="47.85949" lon="6.82369">
        <ele>547.4</ele>
        <time>2020-08-15T18:01:55Z</time>
      </trkpt>
      <trkpt lat="47.85945" lon="6.82374">
        <ele>546.9</ele>
        <time>2020-08-15T18:01:59Z</time>
      </trkpt>
      <trkpt lat="47.85941" lon="6.82379">
        <ele>546.2</ele>
        <time>2020-08-15T18:02:04Z</time>
      </trkpt>
      <trkpt lat="47.85939" lon="6.82387">
        <ele>546.1</ele>
        <time>2020-08-15T18:02:07Z</time>
      </trkpt>
      <trkpt lat="47.85937" lon="6.82393">
        <ele>545.8</ele>
        <time>2020-08-15T18:02:14Z</time>
      </trkpt>
      <trkpt lat="47.85933" lon="6.82398">
        <ele>545.8</ele>
        <time>2020-08-15T18:02:21Z</time>
      </trkpt>
      <trkpt lat="47.8593" lon="6.82404">
        <ele>545.8</ele>
        <time>2020-08-15T18:02:27Z</time>
      </trkpt>
      <trkpt lat="47.85927" lon="6.8241">
        <ele>546</ele>
        <time>2020-08-15T18:02:31Z</time>
      </trkpt>
      <trkpt lat="47.85922" lon="6.82412">
        <ele>546.2</ele>
        <time>2020-08-15T18:02:36Z</time>
      </trkpt>
      <trkpt lat="47.85917" lon="6.82411">
        <ele>546.5</ele>
        <time>2020-08-15T18:02:42Z</time>
      </trkpt>
      <trkpt lat="47.85912" lon="6.82413">
        <ele>546.8</ele>
        <time>2020-08-15T18:02:46Z</time>
      </trkpt>
      <trkpt lat="47.85909" lon="6.82418">
        <ele>546.9</ele>
        <time>2020-08-15T18:02:53Z</time>
      </trkpt>
      <trkpt lat="47.85912" lon="6.82425">
        <ele>547.2</ele>
        <time>2020-08-15T18:02:59Z</time>
      </trkpt>
      <trkpt lat="47.85912" lon="6.82432">
        <ele>547.4</ele>
        <time>2020-08-15T18:03:04Z</time>
      </trkpt>
      <trkpt lat="47.85911" lon="6.8244">
        <ele>547.7</ele>
        <time>2020-08-15T18:03:09Z</time>
      </trkpt>
      <trkpt lat="47.85909" lon="6.82447">
        <ele>547.9</ele>
        <time>2020-08-15T18:03:13Z</time>
      </trkpt>
      <trkpt lat="47.85907" lon="6.82454">
        <ele>547.9</ele>
        <time>2020-08-15T18:03:16Z</time>
      </trkpt>
      <trkpt lat="47.85905" lon="6.8246">
        <ele>547.8</ele>
        <time>2020-08-15T18:03:19Z</time>
      </trkpt>
      <trkpt lat="47.85903" lon="6.82467">
        <ele>547.6</ele>
        <time>2020-08-15T18:03:23Z</time>
      </trkpt>
      <trkpt lat="47.85903" lon="6.82474">
        <ele>547.4</ele>
        <time>2020-08-15T18:03:27Z</time>
      </trkpt>
      <trkpt lat="47.85903" lon="6.82481">
        <ele>547.1</ele>
        <time>2020-08-15T18:03:31Z</time>
      </trkpt>
      <trkpt lat="47.85902" lon="6.82488">
        <ele>546.9</ele>
        <time>2020-08-15T18:03:35Z</time>
      </trkpt>
      <trkpt lat="47.859" lon="6.82495">
        <ele>546.7</ele>
        <time>2020-08-15T18:03:39Z</time>
      </trkpt>
      <trkpt lat="47.85901" lon="6.82505">
        <ele>546.8</ele>
        <time>2020-08-15T18:03:43Z</time>
      </trkpt>
      <trkpt lat="47.85902" lon="6.82512">
        <ele>547.1</ele>
        <time>2020-08-15T18:03:46Z</time>
      </trkpt>
      <trkpt lat="47.85902" lon="6.8252">
        <ele>547.9</ele>
        <time>2020-08-15T18:03:50Z</time>
      </trkpt>
      <trkpt lat="47.85901" lon="6.82527">
        <ele>549.3</ele>
        <time>2020-08-15T18:03:58Z</time>
      </trkpt>
      <trkpt lat="47.859" lon="6.82535">
        <ele>549.6</ele>
        <time>2020-08-15T18:04:03Z</time>
      </trkpt>
      <trkpt lat="47.859" lon="6.82543">
        <ele>549.8</ele>
        <time>2020-08-15T18:04:07Z</time>
      </trkpt>
      <trkpt lat="47.85901" lon="6.8255">
        <ele>550</ele>
        <time>2020-08-15T18:04:10Z</time>
      </trkpt>
      <trkpt lat="47.85901" lon="6.82557">
        <ele>550.1</ele>
        <time>2020-08-15T18:04:14Z</time>
      </trkpt>
      <trkpt lat="47.85902" lon="6.82565">
        <ele>550.3</ele>
        <time>2020-08-15T18:04:19Z</time>
      </trkpt>
      <trkpt lat="47.85902" lon="6.82573">
        <ele>550.7</ele>
        <time>2020-08-15T18:04:24Z</time>
      </trkpt>
      <trkpt lat="47.85903" lon="6.82581">
        <ele>551.3</ele>
        <time>2020-08-15T18:04:29Z</time>
      </trkpt>
      <trkpt lat="47.85902" lon="6.82588">
        <ele>552.1</ele>
        <time>2020-08-15T18:04:33Z</time>
      </trkpt>
      <trkpt lat="47.859" lon="6.82595">
        <ele>553.1</ele>
        <time>2020-08-15T18:04:46Z</time>
      </trkpt>
      <trkpt lat="47.85897" lon="6.82602">
        <ele>552.8</ele>
        <time>2020-08-15T18:04:50Z</time>
      </trkpt>
      <trkpt lat="47.85895" lon="6.8261">
        <ele>552.5</ele>
        <time>2020-08-15T18:04:54Z</time>
      </trkpt>
      <trkpt lat="47.85893" lon="6.82616">
        <ele>552.3</ele>
        <time>2020-08-15T18:04:57Z</time>
      </trkpt>
      <trkpt lat="47.85891" lon="6.82623">
        <ele>552.1</ele>
        <time>2020-08-15T18:05:01Z</time>
      </trkpt>
      <trkpt lat="47.85888" lon="6.82631">
        <ele>552</ele>
        <time>2020-08-15T18:05:05Z</time>
      </trkpt>
      <trkpt lat="47.85887" lon="6.82638">
        <ele>552</ele>
        <time>2020-08-15T18:05:09Z</time>
      </trkpt>
      <trkpt lat="47.85889" lon="6.82645">
        <ele>552.5</ele>
        <time>2020-08-15T18:05:14Z</time>
      </trkpt>
      <trkpt lat="47.85888" lon="6.82651">
        <ele>553.3</ele>
        <time>2020-08-15T18:05:18Z</time>
      </trkpt>
      <trkpt lat="47.85887" lon="6.82659">
        <ele>553.9</ele>
        <time>2020-08-15T18:05:22Z</time>
      </trkpt>
      <trkpt lat="47.85887" lon="6.82668">
        <ele>555</ele>
        <time>2020-08-15T18:05:26Z</time>
      </trkpt>
      <trkpt lat="47.85883" lon="6.82673">
        <ele>556.1</ele>
        <time>2020-08-15T18:05:30Z</time>
      </trkpt>
      <trkpt lat="47.85878" lon="6.82677">
        <ele>557.3</ele>
        <time>2020-08-15T18:05:35Z</time>
      </trkpt>
      <trkpt lat="47.85876" lon="6.82684">
        <ele>558.2</ele>
        <time>2020-08-15T18:05:42Z</time>
      </trkpt>
      <trkpt lat="47.85879" lon="6.82691">
        <ele>558.6</ele>
        <time>2020-08-15T18:05:47Z</time>
      </trkpt>
      <trkpt lat="47.85881" lon="6.82699">
        <ele>558.7</ele>
        <time>2020-08-15T18:05:52Z</time>
      </trkpt>
      <trkpt lat="47.85879" lon="6.82706">
        <ele>558.7</ele>
        <time>2020-08-15T18:05:57Z</time>
      </trkpt>
      <trkpt lat="47.85877" lon="6.82714">
        <ele>558.8</ele>
        <time>2020-08-15T18:06:02Z</time>
      </trkpt>
      <trkpt lat="47.85875" lon="6.8272">
        <ele>558.8</ele>
        <time>2020-08-15T18:06:06Z</time>
      </trkpt>
      <trkpt lat="47.85872" lon="6.82725">
        <ele>558.8</ele>
        <time>2020-08-15T18:06:10Z</time>
      </trkpt>
      <trkpt lat="47.85869" lon="6.82731">
        <ele>558.9</ele>
        <time>2020-08-15T18:06:14Z</time>
      </trkpt>
      <trkpt lat="47.85865" lon="6.82736">
        <ele>559</ele>
        <time>2020-08-15T18:06:18Z</time>
      </trkpt>
      <trkpt lat="47.85863" lon="6.82743">
        <ele>559.2</ele>
        <time>2020-08-15T18:06:22Z</time>
      </trkpt>
      <trkpt lat="47.85861" lon="6.8275">
        <ele>559.4</ele>
        <time>2020-08-15T18:06:26Z</time>
      </trkpt>
      <trkpt lat="47.85858" lon="6.82756">
        <ele>559.5</ele>
        <time>2020-08-15T18:06:31Z</time>
      </trkpt>
      <trkpt lat="47.85856" lon="6.82762">
        <ele>559.8</ele>
        <time>2020-08-15T18:06:37Z</time>
      </trkpt>
      <trkpt lat="47.85852" lon="6.82768">
        <ele>560</ele>
        <time>2020-08-15T18:06:42Z</time>
      </trkpt>
      <trkpt lat="47.85848" lon="6.82773">
        <ele>560.2</ele>
        <time>2020-08-15T18:06:46Z</time>
      </trkpt>
      <trkpt lat="47.85845" lon="6.82779">
        <ele>560.6</ele>
        <time>2020-08-15T18:06:58Z</time>
      </trkpt>
      <trkpt lat="47.85844" lon="6.82786">
        <ele>560.5</ele>
        <time>2020-08-15T18:07:02Z</time>
      </trkpt>
      <trkpt lat="47.85841" lon="6.82794">
        <ele>560.3</ele>
        <time>2020-08-15T18:07:06Z</time>
      </trkpt>
      <trkpt lat="47.85839" lon="6.828">
        <ele>560.2</ele>
        <time>2020-08-15T18:07:10Z</time>
      </trkpt>
      <trkpt lat="47.85837" lon="6.82807">
        <ele>560</ele>
        <time>2020-08-15T18:07:14Z</time>
      </trkpt>
      <trkpt lat="47.85835" lon="6.82813">
        <ele>559.5</ele>
        <time>2020-08-15T18:07:20Z</time>
      </trkpt>
      <trkpt lat="47.85833" lon="6.82822">
        <ele>559.4</ele>
        <time>2020-08-15T18:07:25Z</time>
      </trkpt>
      <trkpt lat="47.85831" lon="6.82828">
        <ele>559.4</ele>
        <time>2020-08-15T18:07:29Z</time>
      </trkpt>
      <trkpt lat="47.85831" lon="6.82835">
        <ele>559.6</ele>
        <time>2020-08-15T18:07:34Z</time>
      </trkpt>
      <trkpt lat="47.85828" lon="6.82842">
        <ele>559.8</ele>
        <time>2020-08-15T18:07:39Z</time>
      </trkpt>
      <trkpt lat="47.85824" lon="6.8285">
        <ele>559.9</ele>
        <time>2020-08-15T18:07:43Z</time>
      </trkpt>
      <trkpt lat="47.85822" lon="6.82857">
        <ele>559.8</ele>
        <time>2020-08-15T18:07:47Z</time>
      </trkpt>
      <trkpt lat="47.85818" lon="6.82864">
        <ele>559.9</ele>
        <time>2020-08-15T18:07:51Z</time>
      </trkpt>
      <trkpt lat="47.85816" lon="6.8287">
        <ele>560</ele>
        <time>2020-08-15T18:07:55Z</time>
      </trkpt>
      <trkpt lat="47.85813" lon="6.82876">
        <ele>559.9</ele>
        <time>2020-08-15T18:07:59Z</time>
      </trkpt>
      <trkpt lat="47.8581" lon="6.82882">
        <ele>560</ele>
        <time>2020-08-15T18:08:03Z</time>
      </trkpt>
      <trkpt lat="47.85808" lon="6.82889">
        <ele>560.2</ele>
        <time>2020-08-15T18:08:07Z</time>
      </trkpt>
      <trkpt lat="47.85805" lon="6.82896">
        <ele>560.3</ele>
        <time>2020-08-15T18:08:11Z</time>
      </trkpt>
      <trkpt lat="47.85803" lon="6.82902">
        <ele>560.2</ele>
        <time>2020-08-15T18:08:16Z</time>
      </trkpt>
      <trkpt lat="47.85799" lon="6.82906">
        <ele>560.9</ele>
        <time>2020-08-15T18:08:26Z</time>
      </trkpt>
      <trkpt lat="47.85797" lon="6.82913">
        <ele>562</ele>
        <time>2020-08-15T18:08:34Z</time>
      </trkpt>
      <trkpt lat="47.85794" lon="6.8292">
        <ele>562.6</ele>
        <time>2020-08-15T18:08:40Z</time>
      </trkpt>
      <trkpt lat="47.85791" lon="6.82927">
        <ele>562.7</ele>
        <time>2020-08-15T18:08:45Z</time>
      </trkpt>
      <trkpt lat="47.85789" lon="6.82934">
        <ele>562.4</ele>
        <time>2020-08-15T18:08:49Z</time>
      </trkpt>
      <trkpt lat="47.85786" lon="6.82941">
        <ele>562.3</ele>
        <time>2020-08-15T18:08:52Z</time>
      </trkpt>
      <trkpt lat="47.85783" lon="6.82949">
        <ele>562.3</ele>
        <time>2020-08-15T18:08:55Z</time>
      </trkpt>
      <trkpt lat="47.8578" lon="6.82956">
        <ele>562.5</ele>
        <time>2020-08-15T18:08:59Z</time>
      </trkpt>
      <trkpt lat="47.85778" lon="6.82963">
        <ele>562.8</ele>
        <time>2020-08-15T18:09:04Z</time>
      </trkpt>
      <trkpt lat="47.85775" lon="6.82968">
        <ele>562.7</ele>
        <time>2020-08-15T18:09:09Z</time>
      </trkpt>
      <trkpt lat="47.85773" lon="6.82974">
        <ele>562.7</ele>
        <time>2020-08-15T18:09:13Z</time>
      </trkpt>
      <trkpt lat="47.8577" lon="6.8298">
        <ele>562.8</ele>
        <time>2020-08-15T18:09:16Z</time>
      </trkpt>
      <trkpt lat="47.85767" lon="6.82987">
        <ele>563.2</ele>
        <time>2020-08-15T18:09:20Z</time>
      </trkpt>
      <trkpt lat="47.85764" lon="6.82993">
        <ele>563.4</ele>
        <time>2020-08-15T18:09:25Z</time>
      </trkpt>
      <trkpt lat="47.8576" lon="6.83">
        <ele>563.6</ele>
        <time>2020-08-15T18:09:30Z</time>
      </trkpt>
      <trkpt lat="47.85758" lon="6.83008">
        <ele>563.9</ele>
        <time>2020-08-15T18:09:34Z</time>
      </trkpt>
      <trkpt lat="47.85756" lon="6.83015">
        <ele>564.3</ele>
        <time>2020-08-15T18:09:38Z</time>
      </trkpt>
      <trkpt lat="47.85753" lon="6.83022">
        <ele>564.7</ele>
        <time>2020-08-15T18:09:42Z</time>
      </trkpt>
      <trkpt lat="47.8575" lon="6.83028">
        <ele>565.1</ele>
        <time>2020-08-15T18:09:46Z</time>
      </trkpt>
      <trkpt lat="47.85748" lon="6.83034">
        <ele>565.4</ele>
        <time>2020-08-15T18:09:50Z</time>
      </trkpt>
      <trkpt lat="47.85746" lon="6.83041">
        <ele>565.5</ele>
        <time>2020-08-15T18:09:54Z</time>
      </trkpt>
      <trkpt lat="47.85744" lon="6.83048">
        <ele>565.7</ele>
        <time>2020-08-15T18:09:58Z</time>
      </trkpt>
      <trkpt lat="47.8574" lon="6.83054">
        <ele>565.8</ele>
        <time>2020-08-15T18:10:03Z</time>
      </trkpt>
      <trkpt lat="47.85738" lon="6.8306">
        <ele>566.2</ele>
        <time>2020-08-15T18:10:07Z</time>
      </trkpt>
      <trkpt lat="47.85734" lon="6.83067">
        <ele>566.9</ele>
        <time>2020-08-15T18:10:11Z</time>
      </trkpt>
      <trkpt lat="47.85732" lon="6.83075">
        <ele>567.8</ele>
        <time>2020-08-15T18:10:15Z</time>
      </trkpt>
      <trkpt lat="47.85729" lon="6.83083">
        <ele>568.3</ele>
        <time>2020-08-15T18:10:19Z</time>
      </trkpt>
      <trkpt lat="47.85726" lon="6.83089">
        <ele>568.6</ele>
        <time>2020-08-15T18:10:24Z</time>
      </trkpt>
      <trkpt lat="47.85724" lon="6.83096">
        <ele>568.8</ele>
        <time>2020-08-15T18:10:28Z</time>
      </trkpt>
      <trkpt lat="47.85723" lon="6.83103">
        <ele>569.4</ele>
        <time>2020-08-15T18:10:32Z</time>
      </trkpt>
      <trkpt lat="47.8572" lon="6.8311">
        <ele>570.3</ele>
        <time>2020-08-15T18:10:37Z</time>
      </trkpt>
      <trkpt lat="47.85718" lon="6.83116">
        <ele>570.8</ele>
        <time>2020-08-15T18:10:42Z</time>
      </trkpt>
      <trkpt lat="47.85716" lon="6.83124">
        <ele>570.8</ele>
        <time>2020-08-15T18:10:48Z</time>
      </trkpt>
      <trkpt lat="47.85712" lon="6.83129">
        <ele>570.9</ele>
        <time>2020-08-15T18:10:53Z</time>
      </trkpt>
      <trkpt lat="47.85708" lon="6.83135">
        <ele>571</ele>
        <time>2020-08-15T18:10:57Z</time>
      </trkpt>
      <trkpt lat="47.85704" lon="6.8314">
        <ele>571.3</ele>
        <time>2020-08-15T18:11:01Z</time>
      </trkpt>
      <trkpt lat="47.85702" lon="6.83146">
        <ele>571.7</ele>
        <time>2020-08-15T18:11:07Z</time>
      </trkpt>
      <trkpt lat="47.85706" lon="6.83141">
        <ele>571.9</ele>
        <time>2020-08-15T18:11:25Z</time>
      </trkpt>
      <trkpt lat="47.8571" lon="6.83139">
        <ele>572.4</ele>
        <time>2020-08-15T18:11:34Z</time>
      </trkpt>
      <trkpt lat="47.85709" lon="6.83145">
        <ele>574.3</ele>
        <time>2020-08-15T18:12:20Z</time>
      </trkpt>
      <trkpt lat="47.85711" lon="6.83152">
        <ele>576.2</ele>
        <time>2020-08-15T18:13:52Z</time>
      </trkpt>
      <trkpt lat="47.85706" lon="6.83152">
        <ele>577.1</ele>
        <time>2020-08-15T18:16:10Z</time>
      </trkpt>
      <trkpt lat="47.85706" lon="6.83145">
        <ele>577.2</ele>
        <time>2020-08-15T18:16:55Z</time>
      </trkpt>
      <trkpt lat="47.85703" lon="6.8315">
        <ele>576.6</ele>
        <time>2020-08-15T18:17:26Z</time>
      </trkpt>
      <trkpt lat="47.85706" lon="6.83145">
        <ele>575.8</ele>
        <time>2020-08-15T18:18:07Z</time>
      </trkpt>
      <trkpt lat="47.85706" lon="6.83151">
        <ele>572.9</ele>
        <time>2020-08-15T18:21:11Z</time>
      </trkpt>
      <trkpt lat="47.85704" lon="6.83145">
        <ele>573.5</ele>
        <time>2020-08-15T18:25:43Z</time>
      </trkpt>
      <trkpt lat="47.85709" lon="6.83144">
        <ele>572.9</ele>
        <time>2020-08-15T18:29:28Z</time>
      </trkpt>
      <trkpt lat="47.85705" lon="6.83148">
        <ele>572.3</ele>
        <time>2020-08-15T18:30:23Z</time>
      </trkpt>
      <trkpt lat="47.85709" lon="6.83143">
        <ele>572</ele>
        <time>2020-08-15T18:31:01Z</time>
      </trkpt>
      <trkpt lat="47.85707" lon="6.83137">
        <ele>571.8</ele>
        <time>2020-08-15T18:31:10Z</time>
      </trkpt>
      <trkpt lat="47.85702" lon="6.83139">
        <ele>571.8</ele>
        <time>2020-08-15T18:31:21Z</time>
      </trkpt>
      <trkpt lat="47.85697" lon="6.83143">
        <ele>571.9</ele>
        <time>2020-08-15T18:31:24Z</time>
      </trkpt>
      <trkpt lat="47.85701" lon="6.83135">
        <ele>572</ele>
        <time>2020-08-15T18:31:30Z</time>
      </trkpt>
      <trkpt lat="47.85705" lon="6.83128">
        <ele>572</ele>
        <time>2020-08-15T18:31:34Z</time>
      </trkpt>
      <trkpt lat="47.8571" lon="6.83127">
        <ele>571.9</ele>
        <time>2020-08-15T18:31:44Z</time>
      </trkpt>
    </trkseg>
  </trk>
</gpx>